<?xml version="1.0" encoding="UTF-8" standalone="no" ?>
<gpx xmlns="http://www.topografix.com/GPX/1/1" xmlns:xsi="http://www.w3.org/2001/XMLSchema-instance" xsi:schemaLocation="http://www.topografix.com/GPX/1/1 http://www.topografix.com/GPX/1/1/gpx.xsd" version="1.1" creator="VisuGPX - https://www.visugpx.com">
  <metadata>
    <name>Tourbes les bois et autres points d'intérêt historiques et culturels</name>
    <desc><![CDATA[trace vérifiée avec mes vieilles guiboles en one shot dur dur]]></desc>
  </metadata>
  <trk>
    <name><![CDATA[2023-05-11 07:29]]></name>
    <extensions>
      <line xmlns="http://www.topografix.com/GPX/gpx_style/0/2">
        <color>FF0000</color>
        <opacity>0.78</opacity>
        <width>3</width>
      </line>
    </extensions>
    <trkseg>
      <trkpt lat="43.44144" lon="3.36991">
        <ele>102.4</ele>
        <time>2023-05-11T05:29:57.013Z</time>
      </trkpt>
      <trkpt lat="43.44146" lon="3.36987">
        <ele>83.04</ele>
        <time>2023-05-11T05:30:07.761Z</time>
      </trkpt>
      <trkpt lat="43.44131" lon="3.3698">
        <ele>83.04</ele>
        <time>2023-05-11T05:30:18.256Z</time>
      </trkpt>
      <trkpt lat="43.44116" lon="3.36977">
        <ele>83.04</ele>
        <time>2023-05-11T05:30:28.704Z</time>
      </trkpt>
      <trkpt lat="43.44103" lon="3.36975">
        <ele>97.28</ele>
        <time>2023-05-11T05:30:39.143Z</time>
      </trkpt>
      <trkpt lat="43.44087" lon="3.36968">
        <ele>100.14</ele>
        <time>2023-05-11T05:30:49.599Z</time>
      </trkpt>
      <trkpt lat="43.44082" lon="3.3697">
        <ele>99.96</ele>
        <time>2023-05-11T05:31:00.047Z</time>
      </trkpt>
      <trkpt lat="43.44081" lon="3.36974">
        <ele>99.12</ele>
        <time>2023-05-11T05:31:11.045Z</time>
      </trkpt>
      <trkpt lat="43.44079" lon="3.36972">
        <ele>100.12</ele>
        <time>2023-05-11T05:31:22.013Z</time>
      </trkpt>
      <trkpt lat="43.44074" lon="3.3697">
        <ele>100.47</ele>
        <time>2023-05-11T05:31:32.379Z</time>
      </trkpt>
      <trkpt lat="43.44055" lon="3.3696">
        <ele>97.64</ele>
        <time>2023-05-11T05:31:42.827Z</time>
      </trkpt>
      <trkpt lat="43.44041" lon="3.36954">
        <ele>97.64</ele>
        <time>2023-05-11T05:31:53.275Z</time>
      </trkpt>
      <trkpt lat="43.44028" lon="3.36947">
        <ele>97.64</ele>
        <time>2023-05-11T05:32:03.686Z</time>
      </trkpt>
      <trkpt lat="43.44014" lon="3.36943">
        <ele>97.64</ele>
        <time>2023-05-11T05:32:14.149Z</time>
      </trkpt>
      <trkpt lat="43.44001" lon="3.36935">
        <ele>97.64</ele>
        <time>2023-05-11T05:32:24.620Z</time>
      </trkpt>
      <trkpt lat="43.43993" lon="3.36917">
        <ele>94.12</ele>
        <time>2023-05-11T05:32:35.068Z</time>
      </trkpt>
      <trkpt lat="43.43985" lon="3.369">
        <ele>91.46</ele>
        <time>2023-05-11T05:32:45.516Z</time>
      </trkpt>
      <trkpt lat="43.4398" lon="3.36886">
        <ele>94.18</ele>
        <time>2023-05-11T05:32:55.745Z</time>
      </trkpt>
      <trkpt lat="43.43973" lon="3.36869">
        <ele>94.02</ele>
        <time>2023-05-11T05:33:06.065Z</time>
      </trkpt>
      <trkpt lat="43.43969" lon="3.36849">
        <ele>92.49</ele>
        <time>2023-05-11T05:33:16.422Z</time>
      </trkpt>
      <trkpt lat="43.43967" lon="3.36826">
        <ele>91.16</ele>
        <time>2023-05-11T05:33:26.871Z</time>
      </trkpt>
      <trkpt lat="43.43969" lon="3.36804">
        <ele>95.45</ele>
        <time>2023-05-11T05:33:37.841Z</time>
      </trkpt>
      <trkpt lat="43.43971" lon="3.36786">
        <ele>94.31</ele>
        <time>2023-05-11T05:33:48.318Z</time>
      </trkpt>
      <trkpt lat="43.43975" lon="3.36767">
        <ele>91.01</ele>
        <time>2023-05-11T05:33:58.767Z</time>
      </trkpt>
      <trkpt lat="43.43979" lon="3.36743">
        <ele>92.68</ele>
        <time>2023-05-11T05:34:09.106Z</time>
      </trkpt>
      <trkpt lat="43.43988" lon="3.36729">
        <ele>92.31</ele>
        <time>2023-05-11T05:34:19.555Z</time>
      </trkpt>
      <trkpt lat="43.43991" lon="3.36711">
        <ele>94.69</ele>
        <time>2023-05-11T05:34:29.961Z</time>
      </trkpt>
      <trkpt lat="43.43997" lon="3.36694">
        <ele>93.23</ele>
        <time>2023-05-11T05:34:40.453Z</time>
      </trkpt>
      <trkpt lat="43.44006" lon="3.36671">
        <ele>93.87</ele>
        <time>2023-05-11T05:34:50.902Z</time>
      </trkpt>
      <trkpt lat="43.44012" lon="3.36658">
        <ele>92.8</ele>
        <time>2023-05-11T05:35:01.324Z</time>
      </trkpt>
      <trkpt lat="43.44017" lon="3.36638">
        <ele>91.71</ele>
        <time>2023-05-11T05:35:11.800Z</time>
      </trkpt>
      <trkpt lat="43.44024" lon="3.36614">
        <ele>89.04</ele>
        <time>2023-05-11T05:35:22.139Z</time>
      </trkpt>
      <trkpt lat="43.44029" lon="3.36595">
        <ele>86.81</ele>
        <time>2023-05-11T05:35:32.588Z</time>
      </trkpt>
      <trkpt lat="43.44035" lon="3.36578">
        <ele>85.24</ele>
        <time>2023-05-11T05:35:43.037Z</time>
      </trkpt>
      <trkpt lat="43.44038" lon="3.36572">
        <ele>85.52</ele>
        <time>2023-05-11T05:35:54.036Z</time>
      </trkpt>
      <trkpt lat="43.44038" lon="3.3657">
        <ele>85.74</ele>
        <time>2023-05-11T05:36:05.014Z</time>
      </trkpt>
      <trkpt lat="43.44044" lon="3.36547">
        <ele>90.73</ele>
        <time>2023-05-11T05:36:15.466Z</time>
      </trkpt>
      <trkpt lat="43.44048" lon="3.3653">
        <ele>89.61</ele>
        <time>2023-05-11T05:36:25.931Z</time>
      </trkpt>
      <trkpt lat="43.44056" lon="3.3651">
        <ele>87.03</ele>
        <time>2023-05-11T05:36:36.382Z</time>
      </trkpt>
      <trkpt lat="43.44059" lon="3.36489">
        <ele>84.7</ele>
        <time>2023-05-11T05:36:46.831Z</time>
      </trkpt>
      <trkpt lat="43.44066" lon="3.36466">
        <ele>86.79</ele>
        <time>2023-05-11T05:36:57.280Z</time>
      </trkpt>
      <trkpt lat="43.44072" lon="3.36448">
        <ele>82.21</ele>
        <time>2023-05-11T05:37:07.729Z</time>
      </trkpt>
      <trkpt lat="43.44073" lon="3.36427">
        <ele>81.23</ele>
        <time>2023-05-11T05:37:18.105Z</time>
      </trkpt>
      <trkpt lat="43.44078" lon="3.36408">
        <ele>82.84</ele>
        <time>2023-05-11T05:37:28.518Z</time>
      </trkpt>
      <trkpt lat="43.4408" lon="3.36388">
        <ele>82.2</ele>
        <time>2023-05-11T05:37:38.967Z</time>
      </trkpt>
      <trkpt lat="43.44079" lon="3.3637">
        <ele>81.95</ele>
        <time>2023-05-11T05:37:49.383Z</time>
      </trkpt>
      <trkpt lat="43.4408" lon="3.3635">
        <ele>82.92</ele>
        <time>2023-05-11T05:37:59.866Z</time>
      </trkpt>
      <trkpt lat="43.44074" lon="3.36324">
        <ele>82.81</ele>
        <time>2023-05-11T05:38:10.316Z</time>
      </trkpt>
      <trkpt lat="43.44067" lon="3.36304">
        <ele>91.24</ele>
        <time>2023-05-11T05:38:20.655Z</time>
      </trkpt>
      <trkpt lat="43.44061" lon="3.36285">
        <ele>91.14</ele>
        <time>2023-05-11T05:38:31.104Z</time>
      </trkpt>
      <trkpt lat="43.44058" lon="3.36272">
        <ele>88.15</ele>
        <time>2023-05-11T05:38:41.555Z</time>
      </trkpt>
      <trkpt lat="43.44058" lon="3.36254">
        <ele>81.23</ele>
        <time>2023-05-11T05:38:52.004Z</time>
      </trkpt>
      <trkpt lat="43.44054" lon="3.36232">
        <ele>77.74</ele>
        <time>2023-05-11T05:39:02.454Z</time>
      </trkpt>
      <trkpt lat="43.44051" lon="3.36211">
        <ele>75.24</ele>
        <time>2023-05-11T05:39:12.881Z</time>
      </trkpt>
      <trkpt lat="43.44042" lon="3.36188">
        <ele>75.56</ele>
        <time>2023-05-11T05:39:23.354Z</time>
      </trkpt>
      <trkpt lat="43.44032" lon="3.36169">
        <ele>77.41</ele>
        <time>2023-05-11T05:39:33.803Z</time>
      </trkpt>
      <trkpt lat="43.44024" lon="3.36156">
        <ele>78.59</ele>
        <time>2023-05-11T05:39:44.225Z</time>
      </trkpt>
      <trkpt lat="43.4402" lon="3.36141">
        <ele>78.91</ele>
        <time>2023-05-11T05:39:54.593Z</time>
      </trkpt>
      <trkpt lat="43.44017" lon="3.3612">
        <ele>78.46</ele>
        <time>2023-05-11T05:40:05.042Z</time>
      </trkpt>
      <trkpt lat="43.44007" lon="3.36101">
        <ele>78.19</ele>
        <time>2023-05-11T05:40:15.463Z</time>
      </trkpt>
      <trkpt lat="43.43995" lon="3.36088">
        <ele>79.35</ele>
        <time>2023-05-11T05:40:25.940Z</time>
      </trkpt>
      <trkpt lat="43.43985" lon="3.36098">
        <ele>76.79</ele>
        <time>2023-05-11T05:40:36.388Z</time>
      </trkpt>
      <trkpt lat="43.43978" lon="3.36108">
        <ele>75.08</ele>
        <time>2023-05-11T05:40:46.725Z</time>
      </trkpt>
      <trkpt lat="43.43969" lon="3.36122">
        <ele>75.14</ele>
        <time>2023-05-11T05:40:57.149Z</time>
      </trkpt>
      <trkpt lat="43.43961" lon="3.36135">
        <ele>75.42</ele>
        <time>2023-05-11T05:41:07.621Z</time>
      </trkpt>
      <trkpt lat="43.43949" lon="3.36146">
        <ele>72.4</ele>
        <time>2023-05-11T05:41:18.068Z</time>
      </trkpt>
      <trkpt lat="43.43935" lon="3.36159">
        <ele>69.69</ele>
        <time>2023-05-11T05:41:28.516Z</time>
      </trkpt>
      <trkpt lat="43.43925" lon="3.36174">
        <ele>69.96</ele>
        <time>2023-05-11T05:41:38.963Z</time>
      </trkpt>
      <trkpt lat="43.43916" lon="3.36189">
        <ele>69.85</ele>
        <time>2023-05-11T05:41:49.410Z</time>
      </trkpt>
      <trkpt lat="43.43909" lon="3.36209">
        <ele>72.69</ele>
        <time>2023-05-11T05:41:59.858Z</time>
      </trkpt>
      <trkpt lat="43.439" lon="3.36225">
        <ele>72.07</ele>
        <time>2023-05-11T05:42:10.282Z</time>
      </trkpt>
      <trkpt lat="43.4389" lon="3.3624">
        <ele>71.23</ele>
        <time>2023-05-11T05:42:20.752Z</time>
      </trkpt>
      <trkpt lat="43.43881" lon="3.3626">
        <ele>71.57</ele>
        <time>2023-05-11T05:42:31.200Z</time>
      </trkpt>
      <trkpt lat="43.43871" lon="3.36277">
        <ele>72.48</ele>
        <time>2023-05-11T05:42:41.647Z</time>
      </trkpt>
      <trkpt lat="43.43859" lon="3.36288">
        <ele>73.66</ele>
        <time>2023-05-11T05:42:51.984Z</time>
      </trkpt>
      <trkpt lat="43.4385" lon="3.36304">
        <ele>70.93</ele>
        <time>2023-05-11T05:43:02.321Z</time>
      </trkpt>
      <trkpt lat="43.43839" lon="3.36317">
        <ele>69.83</ele>
        <time>2023-05-11T05:43:12.768Z</time>
      </trkpt>
      <trkpt lat="43.43828" lon="3.36328">
        <ele>70.14</ele>
        <time>2023-05-11T05:43:23.215Z</time>
      </trkpt>
      <trkpt lat="43.43817" lon="3.36339">
        <ele>70.2</ele>
        <time>2023-05-11T05:43:33.662Z</time>
      </trkpt>
      <trkpt lat="43.43806" lon="3.36359">
        <ele>74.29</ele>
        <time>2023-05-11T05:43:44.109Z</time>
      </trkpt>
      <trkpt lat="43.43795" lon="3.36371">
        <ele>74.86</ele>
        <time>2023-05-11T05:43:54.557Z</time>
      </trkpt>
      <trkpt lat="43.43784" lon="3.36384">
        <ele>73.64</ele>
        <time>2023-05-11T05:44:04.894Z</time>
      </trkpt>
      <trkpt lat="43.43774" lon="3.36398">
        <ele>73.92</ele>
        <time>2023-05-11T05:44:15.340Z</time>
      </trkpt>
      <trkpt lat="43.43763" lon="3.36409">
        <ele>72.68</ele>
        <time>2023-05-11T05:44:25.787Z</time>
      </trkpt>
      <trkpt lat="43.43752" lon="3.36424">
        <ele>74.23</ele>
        <time>2023-05-11T05:44:36.234Z</time>
      </trkpt>
      <trkpt lat="43.43742" lon="3.36436">
        <ele>74.93</ele>
        <time>2023-05-11T05:44:46.681Z</time>
      </trkpt>
      <trkpt lat="43.43729" lon="3.36449">
        <ele>74.82</ele>
        <time>2023-05-11T05:44:57.127Z</time>
      </trkpt>
      <trkpt lat="43.43718" lon="3.36463">
        <ele>75.17</ele>
        <time>2023-05-11T05:45:07.575Z</time>
      </trkpt>
      <trkpt lat="43.43707" lon="3.36477">
        <ele>76.42</ele>
        <time>2023-05-11T05:45:18.022Z</time>
      </trkpt>
      <trkpt lat="43.43695" lon="3.3649">
        <ele>77.54</ele>
        <time>2023-05-11T05:45:28.359Z</time>
      </trkpt>
      <trkpt lat="43.43684" lon="3.36502">
        <ele>76.77</ele>
        <time>2023-05-11T05:45:38.805Z</time>
      </trkpt>
      <trkpt lat="43.43674" lon="3.36514">
        <ele>75.42</ele>
        <time>2023-05-11T05:45:49.252Z</time>
      </trkpt>
      <trkpt lat="43.43663" lon="3.36527">
        <ele>74.59</ele>
        <time>2023-05-11T05:45:59.699Z</time>
      </trkpt>
      <trkpt lat="43.43652" lon="3.36541">
        <ele>74.67</ele>
        <time>2023-05-11T05:46:10.146Z</time>
      </trkpt>
      <trkpt lat="43.4364" lon="3.36552">
        <ele>74.4</ele>
        <time>2023-05-11T05:46:20.592Z</time>
      </trkpt>
      <trkpt lat="43.43628" lon="3.36562">
        <ele>74.02</ele>
        <time>2023-05-11T05:46:31.039Z</time>
      </trkpt>
      <trkpt lat="43.43614" lon="3.36573">
        <ele>75.1</ele>
        <time>2023-05-11T05:46:41.486Z</time>
      </trkpt>
      <trkpt lat="43.436" lon="3.36584">
        <ele>76.81</ele>
        <time>2023-05-11T05:46:51.933Z</time>
      </trkpt>
      <trkpt lat="43.43588" lon="3.36594">
        <ele>73.83</ele>
        <time>2023-05-11T05:47:02.379Z</time>
      </trkpt>
      <trkpt lat="43.43577" lon="3.36609">
        <ele>77</ele>
        <time>2023-05-11T05:47:12.716Z</time>
      </trkpt>
      <trkpt lat="43.43567" lon="3.36623">
        <ele>78.75</ele>
        <time>2023-05-11T05:47:23.149Z</time>
      </trkpt>
      <trkpt lat="43.43556" lon="3.36637">
        <ele>77.52</ele>
        <time>2023-05-11T05:47:33.609Z</time>
      </trkpt>
      <trkpt lat="43.43547" lon="3.36651">
        <ele>77.36</ele>
        <time>2023-05-11T05:47:44.056Z</time>
      </trkpt>
      <trkpt lat="43.43537" lon="3.36666">
        <ele>78.38</ele>
        <time>2023-05-11T05:47:54.503Z</time>
      </trkpt>
      <trkpt lat="43.43528" lon="3.36682">
        <ele>77.87</ele>
        <time>2023-05-11T05:48:04.949Z</time>
      </trkpt>
      <trkpt lat="43.43519" lon="3.36697">
        <ele>76.7</ele>
        <time>2023-05-11T05:48:15.396Z</time>
      </trkpt>
      <trkpt lat="43.4351" lon="3.36712">
        <ele>75.77</ele>
        <time>2023-05-11T05:48:25.842Z</time>
      </trkpt>
      <trkpt lat="43.43502" lon="3.36724">
        <ele>75.76</ele>
        <time>2023-05-11T05:48:36.289Z</time>
      </trkpt>
      <trkpt lat="43.43493" lon="3.36746">
        <ele>74.7</ele>
        <time>2023-05-11T05:48:46.736Z</time>
      </trkpt>
      <trkpt lat="43.43485" lon="3.36761">
        <ele>74.12</ele>
        <time>2023-05-11T05:48:57.149Z</time>
      </trkpt>
      <trkpt lat="43.43471" lon="3.36755">
        <ele>76.02</ele>
        <time>2023-05-11T05:49:07.629Z</time>
      </trkpt>
      <trkpt lat="43.43456" lon="3.36745">
        <ele>77.43</ele>
        <time>2023-05-11T05:49:18.076Z</time>
      </trkpt>
      <trkpt lat="43.43444" lon="3.36734">
        <ele>78.67</ele>
        <time>2023-05-11T05:49:28.522Z</time>
      </trkpt>
      <trkpt lat="43.43432" lon="3.36724">
        <ele>76.34</ele>
        <time>2023-05-11T05:49:38.969Z</time>
      </trkpt>
      <trkpt lat="43.43421" lon="3.36714">
        <ele>74.96</ele>
        <time>2023-05-11T05:49:49.416Z</time>
      </trkpt>
      <trkpt lat="43.43408" lon="3.36704">
        <ele>73.2</ele>
        <time>2023-05-11T05:49:59.862Z</time>
      </trkpt>
      <trkpt lat="43.43397" lon="3.36693">
        <ele>73.96</ele>
        <time>2023-05-11T05:50:10.261Z</time>
      </trkpt>
      <trkpt lat="43.43385" lon="3.36684">
        <ele>73.21</ele>
        <time>2023-05-11T05:50:20.755Z</time>
      </trkpt>
      <trkpt lat="43.43373" lon="3.36672">
        <ele>74.08</ele>
        <time>2023-05-11T05:50:31.202Z</time>
      </trkpt>
      <trkpt lat="43.4336" lon="3.36661">
        <ele>73.8</ele>
        <time>2023-05-11T05:50:41.648Z</time>
      </trkpt>
      <trkpt lat="43.43348" lon="3.36649">
        <ele>74.2</ele>
        <time>2023-05-11T05:50:52.095Z</time>
      </trkpt>
      <trkpt lat="43.43339" lon="3.36635">
        <ele>75.78</ele>
        <time>2023-05-11T05:51:02.541Z</time>
      </trkpt>
      <trkpt lat="43.43325" lon="3.36624">
        <ele>77.55</ele>
        <time>2023-05-11T05:51:12.988Z</time>
      </trkpt>
      <trkpt lat="43.43313" lon="3.36609">
        <ele>78.48</ele>
        <time>2023-05-11T05:51:23.434Z</time>
      </trkpt>
      <trkpt lat="43.43304" lon="3.36594">
        <ele>77.6</ele>
        <time>2023-05-11T05:51:33.864Z</time>
      </trkpt>
      <trkpt lat="43.43294" lon="3.3658">
        <ele>76.08</ele>
        <time>2023-05-11T05:51:44.326Z</time>
      </trkpt>
      <trkpt lat="43.43284" lon="3.36566">
        <ele>75</ele>
        <time>2023-05-11T05:51:54.774Z</time>
      </trkpt>
      <trkpt lat="43.43275" lon="3.36551">
        <ele>74.71</ele>
        <time>2023-05-11T05:52:05.142Z</time>
      </trkpt>
      <trkpt lat="43.43266" lon="3.36537">
        <ele>76.02</ele>
        <time>2023-05-11T05:52:15.524Z</time>
      </trkpt>
      <trkpt lat="43.43254" lon="3.36516">
        <ele>75.35</ele>
        <time>2023-05-11T05:52:26.008Z</time>
      </trkpt>
      <trkpt lat="43.43247" lon="3.36499">
        <ele>74.54</ele>
        <time>2023-05-11T05:52:36.450Z</time>
      </trkpt>
      <trkpt lat="43.43242" lon="3.36481">
        <ele>73.41</ele>
        <time>2023-05-11T05:52:46.883Z</time>
      </trkpt>
      <trkpt lat="43.43236" lon="3.36464">
        <ele>72.87</ele>
        <time>2023-05-11T05:52:57.342Z</time>
      </trkpt>
      <trkpt lat="43.43229" lon="3.36444">
        <ele>74</ele>
        <time>2023-05-11T05:53:07.788Z</time>
      </trkpt>
      <trkpt lat="43.43223" lon="3.36425">
        <ele>75.23</ele>
        <time>2023-05-11T05:53:18.236Z</time>
      </trkpt>
      <trkpt lat="43.43216" lon="3.36407">
        <ele>74.91</ele>
        <time>2023-05-11T05:53:28.682Z</time>
      </trkpt>
      <trkpt lat="43.43208" lon="3.36389">
        <ele>73.23</ele>
        <time>2023-05-11T05:53:39.128Z</time>
      </trkpt>
      <trkpt lat="43.432" lon="3.36371">
        <ele>72.98</ele>
        <time>2023-05-11T05:53:49.575Z</time>
      </trkpt>
      <trkpt lat="43.43192" lon="3.36354">
        <ele>73.82</ele>
        <time>2023-05-11T05:54:00.021Z</time>
      </trkpt>
      <trkpt lat="43.43183" lon="3.36337">
        <ele>73.88</ele>
        <time>2023-05-11T05:54:10.467Z</time>
      </trkpt>
      <trkpt lat="43.43172" lon="3.3632">
        <ele>73.83</ele>
        <time>2023-05-11T05:54:20.804Z</time>
      </trkpt>
      <trkpt lat="43.43163" lon="3.36303">
        <ele>74.95</ele>
        <time>2023-05-11T05:54:31.250Z</time>
      </trkpt>
      <trkpt lat="43.43155" lon="3.36289">
        <ele>76.53</ele>
        <time>2023-05-11T05:54:41.697Z</time>
      </trkpt>
      <trkpt lat="43.43143" lon="3.36276">
        <ele>74.64</ele>
        <time>2023-05-11T05:54:52.142Z</time>
      </trkpt>
      <trkpt lat="43.43134" lon="3.36261">
        <ele>75.34</ele>
        <time>2023-05-11T05:55:02.590Z</time>
      </trkpt>
      <trkpt lat="43.43124" lon="3.36242">
        <ele>75.47</ele>
        <time>2023-05-11T05:55:13.036Z</time>
      </trkpt>
      <trkpt lat="43.43117" lon="3.36229">
        <ele>75.58</ele>
        <time>2023-05-11T05:55:23.483Z</time>
      </trkpt>
      <trkpt lat="43.43111" lon="3.36213">
        <ele>76.76</ele>
        <time>2023-05-11T05:55:33.929Z</time>
      </trkpt>
      <trkpt lat="43.431" lon="3.36202">
        <ele>74.02</ele>
        <time>2023-05-11T05:55:44.363Z</time>
      </trkpt>
      <trkpt lat="43.43089" lon="3.36206">
        <ele>72.72</ele>
        <time>2023-05-11T05:55:54.712Z</time>
      </trkpt>
      <trkpt lat="43.43077" lon="3.36211">
        <ele>73.54</ele>
        <time>2023-05-11T05:56:05.149Z</time>
      </trkpt>
      <trkpt lat="43.43063" lon="3.36216">
        <ele>73.07</ele>
        <time>2023-05-11T05:56:15.605Z</time>
      </trkpt>
      <trkpt lat="43.43055" lon="3.3623">
        <ele>75.27</ele>
        <time>2023-05-11T05:56:26.044Z</time>
      </trkpt>
      <trkpt lat="43.43059" lon="3.36248">
        <ele>78.91</ele>
        <time>2023-05-11T05:56:36.388Z</time>
      </trkpt>
      <trkpt lat="43.43046" lon="3.36257">
        <ele>77.75</ele>
        <time>2023-05-11T05:56:46.835Z</time>
      </trkpt>
      <trkpt lat="43.43033" lon="3.36261">
        <ele>76.51</ele>
        <time>2023-05-11T05:56:57.280Z</time>
      </trkpt>
      <trkpt lat="43.43022" lon="3.36263">
        <ele>74.22</ele>
        <time>2023-05-11T05:57:07.727Z</time>
      </trkpt>
      <trkpt lat="43.43009" lon="3.36269">
        <ele>73.77</ele>
        <time>2023-05-11T05:57:18.148Z</time>
      </trkpt>
      <trkpt lat="43.42996" lon="3.36272">
        <ele>73.8</ele>
        <time>2023-05-11T05:57:28.510Z</time>
      </trkpt>
      <trkpt lat="43.42981" lon="3.36277">
        <ele>73.27</ele>
        <time>2023-05-11T05:57:38.956Z</time>
      </trkpt>
      <trkpt lat="43.42967" lon="3.36282">
        <ele>76.47</ele>
        <time>2023-05-11T05:57:49.403Z</time>
      </trkpt>
      <trkpt lat="43.42953" lon="3.3629">
        <ele>78.95</ele>
        <time>2023-05-11T05:57:59.849Z</time>
      </trkpt>
      <trkpt lat="43.42952" lon="3.36308">
        <ele>80.81</ele>
        <time>2023-05-11T05:58:10.295Z</time>
      </trkpt>
      <trkpt lat="43.42943" lon="3.36313">
        <ele>88.16</ele>
        <time>2023-05-11T05:58:20.631Z</time>
      </trkpt>
      <trkpt lat="43.42929" lon="3.36309">
        <ele>88.16</ele>
        <time>2023-05-11T05:58:31.044Z</time>
      </trkpt>
      <trkpt lat="43.42918" lon="3.36302">
        <ele>88.16</ele>
        <time>2023-05-11T05:58:41.414Z</time>
      </trkpt>
      <trkpt lat="43.42905" lon="3.36299">
        <ele>88.16</ele>
        <time>2023-05-11T05:58:51.860Z</time>
      </trkpt>
      <trkpt lat="43.42893" lon="3.3629">
        <ele>88.16</ele>
        <time>2023-05-11T05:59:02.305Z</time>
      </trkpt>
      <trkpt lat="43.42885" lon="3.36277">
        <ele>88.16</ele>
        <time>2023-05-11T05:59:12.753Z</time>
      </trkpt>
      <trkpt lat="43.42876" lon="3.36267">
        <ele>88.16</ele>
        <time>2023-05-11T05:59:23.199Z</time>
      </trkpt>
      <trkpt lat="43.42864" lon="3.36255">
        <ele>88.16</ele>
        <time>2023-05-11T05:59:33.582Z</time>
      </trkpt>
      <trkpt lat="43.42859" lon="3.36241">
        <ele>85.82</ele>
        <time>2023-05-11T05:59:43.871Z</time>
      </trkpt>
      <trkpt lat="43.42854" lon="3.36229">
        <ele>91.06</ele>
        <time>2023-05-11T05:59:54.266Z</time>
      </trkpt>
      <trkpt lat="43.42849" lon="3.36217">
        <ele>92.4</ele>
        <time>2023-05-11T06:00:04.654Z</time>
      </trkpt>
      <trkpt lat="43.42851" lon="3.36203">
        <ele>93.6</ele>
        <time>2023-05-11T06:00:15.100Z</time>
      </trkpt>
      <trkpt lat="43.42853" lon="3.36186">
        <ele>95.16</ele>
        <time>2023-05-11T06:00:25.546Z</time>
      </trkpt>
      <trkpt lat="43.42852" lon="3.36173">
        <ele>97.7</ele>
        <time>2023-05-11T06:00:35.992Z</time>
      </trkpt>
      <trkpt lat="43.42852" lon="3.36164">
        <ele>97.02</ele>
        <time>2023-05-11T06:00:46.878Z</time>
      </trkpt>
      <trkpt lat="43.4285" lon="3.36159">
        <ele>96.79</ele>
        <time>2023-05-11T06:00:59.523Z</time>
      </trkpt>
      <trkpt lat="43.42842" lon="3.36141">
        <ele>98.14</ele>
        <time>2023-05-11T06:01:09.970Z</time>
      </trkpt>
      <trkpt lat="43.42833" lon="3.36127">
        <ele>99.34</ele>
        <time>2023-05-11T06:01:20.923Z</time>
      </trkpt>
      <trkpt lat="43.42821" lon="3.36117">
        <ele>101.31</ele>
        <time>2023-05-11T06:01:31.412Z</time>
      </trkpt>
      <trkpt lat="43.42809" lon="3.36106">
        <ele>99.77</ele>
        <time>2023-05-11T06:01:41.845Z</time>
      </trkpt>
      <trkpt lat="43.42799" lon="3.36093">
        <ele>99.15</ele>
        <time>2023-05-11T06:01:52.194Z</time>
      </trkpt>
      <trkpt lat="43.42789" lon="3.36081">
        <ele>98.45</ele>
        <time>2023-05-11T06:02:02.640Z</time>
      </trkpt>
      <trkpt lat="43.42775" lon="3.36073">
        <ele>101.05</ele>
        <time>2023-05-11T06:02:13.087Z</time>
      </trkpt>
      <trkpt lat="43.42762" lon="3.36063">
        <ele>101.02</ele>
        <time>2023-05-11T06:02:23.533Z</time>
      </trkpt>
      <trkpt lat="43.4275" lon="3.36052">
        <ele>102.44</ele>
        <time>2023-05-11T06:02:33.869Z</time>
      </trkpt>
      <trkpt lat="43.42735" lon="3.36044">
        <ele>102.57</ele>
        <time>2023-05-11T06:02:44.315Z</time>
      </trkpt>
      <trkpt lat="43.42722" lon="3.36037">
        <ele>103.35</ele>
        <time>2023-05-11T06:02:54.651Z</time>
      </trkpt>
      <trkpt lat="43.42708" lon="3.36035">
        <ele>102.65</ele>
        <time>2023-05-11T06:03:05.097Z</time>
      </trkpt>
      <trkpt lat="43.42696" lon="3.36033">
        <ele>100.7</ele>
        <time>2023-05-11T06:03:15.543Z</time>
      </trkpt>
      <trkpt lat="43.42686" lon="3.36028">
        <ele>98.22</ele>
        <time>2023-05-11T06:03:25.989Z</time>
      </trkpt>
      <trkpt lat="43.42691" lon="3.36009">
        <ele>99.39</ele>
        <time>2023-05-11T06:03:36.942Z</time>
      </trkpt>
      <trkpt lat="43.42696" lon="3.35994">
        <ele>99.73</ele>
        <time>2023-05-11T06:03:47.430Z</time>
      </trkpt>
      <trkpt lat="43.42692" lon="3.35984">
        <ele>100.86</ele>
        <time>2023-05-11T06:03:57.768Z</time>
      </trkpt>
      <trkpt lat="43.42688" lon="3.35981">
        <ele>101.48</ele>
        <time>2023-05-11T06:04:08.148Z</time>
      </trkpt>
      <trkpt lat="43.42685" lon="3.35979">
        <ele>102.66</ele>
        <time>2023-05-11T06:04:18.550Z</time>
      </trkpt>
      <trkpt lat="43.42686" lon="3.35979">
        <ele>108.93</ele>
        <time>2023-05-11T06:05:37.722Z</time>
      </trkpt>
      <trkpt lat="43.42693" lon="3.35981">
        <ele>106.96</ele>
        <time>2023-05-11T06:05:48.687Z</time>
      </trkpt>
      <trkpt lat="43.42697" lon="3.35987">
        <ele>106.01</ele>
        <time>2023-05-11T06:05:59.714Z</time>
      </trkpt>
      <trkpt lat="43.4269" lon="3.36003">
        <ele>104.59</ele>
        <time>2023-05-11T06:06:10.050Z</time>
      </trkpt>
      <trkpt lat="43.42685" lon="3.3602">
        <ele>102.73</ele>
        <time>2023-05-11T06:06:21.042Z</time>
      </trkpt>
      <trkpt lat="43.42688" lon="3.36033">
        <ele>101.41</ele>
        <time>2023-05-11T06:06:31.492Z</time>
      </trkpt>
      <trkpt lat="43.42697" lon="3.36032">
        <ele>100.28</ele>
        <time>2023-05-11T06:06:41.937Z</time>
      </trkpt>
      <trkpt lat="43.42707" lon="3.36038">
        <ele>102.09</ele>
        <time>2023-05-11T06:06:52.934Z</time>
      </trkpt>
      <trkpt lat="43.42706" lon="3.36038">
        <ele>103.16</ele>
        <time>2023-05-11T06:07:03.930Z</time>
      </trkpt>
      <trkpt lat="43.42705" lon="3.36037">
        <ele>103.16</ele>
        <time>2023-05-11T06:07:14.018Z</time>
      </trkpt>
      <trkpt lat="43.4271" lon="3.3604">
        <ele>101.49</ele>
        <time>2023-05-11T06:07:24.271Z</time>
      </trkpt>
      <trkpt lat="43.42725" lon="3.36047">
        <ele>102.26</ele>
        <time>2023-05-11T06:07:34.718Z</time>
      </trkpt>
      <trkpt lat="43.42737" lon="3.36049">
        <ele>102.45</ele>
        <time>2023-05-11T06:07:45.154Z</time>
      </trkpt>
      <trkpt lat="43.42751" lon="3.36053">
        <ele>101.76</ele>
        <time>2023-05-11T06:07:55.610Z</time>
      </trkpt>
      <trkpt lat="43.42762" lon="3.36065">
        <ele>101.22</ele>
        <time>2023-05-11T06:08:06.056Z</time>
      </trkpt>
      <trkpt lat="43.42776" lon="3.36073">
        <ele>102.2</ele>
        <time>2023-05-11T06:08:16.502Z</time>
      </trkpt>
      <trkpt lat="43.42787" lon="3.36081">
        <ele>103.34</ele>
        <time>2023-05-11T06:08:26.947Z</time>
      </trkpt>
      <trkpt lat="43.42799" lon="3.36095">
        <ele>102.33</ele>
        <time>2023-05-11T06:08:37.283Z</time>
      </trkpt>
      <trkpt lat="43.42808" lon="3.36105">
        <ele>102.82</ele>
        <time>2023-05-11T06:08:47.729Z</time>
      </trkpt>
      <trkpt lat="43.4282" lon="3.36114">
        <ele>101.71</ele>
        <time>2023-05-11T06:08:58.148Z</time>
      </trkpt>
      <trkpt lat="43.4283" lon="3.36125">
        <ele>100.71</ele>
        <time>2023-05-11T06:09:08.511Z</time>
      </trkpt>
      <trkpt lat="43.42838" lon="3.36136">
        <ele>99.29</ele>
        <time>2023-05-11T06:09:18.957Z</time>
      </trkpt>
      <trkpt lat="43.42843" lon="3.36149">
        <ele>100.19</ele>
        <time>2023-05-11T06:09:29.404Z</time>
      </trkpt>
      <trkpt lat="43.42848" lon="3.36167">
        <ele>100.09</ele>
        <time>2023-05-11T06:09:39.850Z</time>
      </trkpt>
      <trkpt lat="43.4285" lon="3.36185">
        <ele>99.23</ele>
        <time>2023-05-11T06:09:50.295Z</time>
      </trkpt>
      <trkpt lat="43.42848" lon="3.36201">
        <ele>98.05</ele>
        <time>2023-05-11T06:10:00.742Z</time>
      </trkpt>
      <trkpt lat="43.42849" lon="3.36218">
        <ele>97.26</ele>
        <time>2023-05-11T06:10:11.149Z</time>
      </trkpt>
      <trkpt lat="43.42854" lon="3.36228">
        <ele>96.44</ele>
        <time>2023-05-11T06:10:21.635Z</time>
      </trkpt>
      <trkpt lat="43.4286" lon="3.36238">
        <ele>93.43</ele>
        <time>2023-05-11T06:10:32.081Z</time>
      </trkpt>
      <trkpt lat="43.42863" lon="3.36254">
        <ele>89.12</ele>
        <time>2023-05-11T06:10:42.417Z</time>
      </trkpt>
      <trkpt lat="43.42873" lon="3.36264">
        <ele>86.1</ele>
        <time>2023-05-11T06:10:52.863Z</time>
      </trkpt>
      <trkpt lat="43.42882" lon="3.36279">
        <ele>84.39</ele>
        <time>2023-05-11T06:11:03.309Z</time>
      </trkpt>
      <trkpt lat="43.42891" lon="3.36292">
        <ele>84.6</ele>
        <time>2023-05-11T06:11:13.755Z</time>
      </trkpt>
      <trkpt lat="43.42905" lon="3.363">
        <ele>84.25</ele>
        <time>2023-05-11T06:11:24.702Z</time>
      </trkpt>
      <trkpt lat="43.42919" lon="3.36307">
        <ele>84.56</ele>
        <time>2023-05-11T06:11:35.149Z</time>
      </trkpt>
      <trkpt lat="43.42931" lon="3.36315">
        <ele>82.56</ele>
        <time>2023-05-11T06:11:45.642Z</time>
      </trkpt>
      <trkpt lat="43.42946" lon="3.36316">
        <ele>81.67</ele>
        <time>2023-05-11T06:11:56.089Z</time>
      </trkpt>
      <trkpt lat="43.42959" lon="3.36321">
        <ele>82.37</ele>
        <time>2023-05-11T06:12:06.535Z</time>
      </trkpt>
      <trkpt lat="43.42973" lon="3.36317">
        <ele>84.33</ele>
        <time>2023-05-11T06:12:16.944Z</time>
      </trkpt>
      <trkpt lat="43.42987" lon="3.36315">
        <ele>85.34</ele>
        <time>2023-05-11T06:12:27.317Z</time>
      </trkpt>
      <trkpt lat="43.42996" lon="3.36312">
        <ele>85.35</ele>
        <time>2023-05-11T06:12:37.652Z</time>
      </trkpt>
      <trkpt lat="43.43008" lon="3.36308">
        <ele>84.75</ele>
        <time>2023-05-11T06:12:48.098Z</time>
      </trkpt>
      <trkpt lat="43.43022" lon="3.36306">
        <ele>85.5</ele>
        <time>2023-05-11T06:12:58.435Z</time>
      </trkpt>
      <trkpt lat="43.43034" lon="3.36302">
        <ele>85.93</ele>
        <time>2023-05-11T06:13:08.881Z</time>
      </trkpt>
      <trkpt lat="43.43047" lon="3.363">
        <ele>86.02</ele>
        <time>2023-05-11T06:13:19.326Z</time>
      </trkpt>
      <trkpt lat="43.43058" lon="3.36297">
        <ele>83.36</ele>
        <time>2023-05-11T06:13:29.664Z</time>
      </trkpt>
      <trkpt lat="43.43058" lon="3.3629">
        <ele>81.74</ele>
        <time>2023-05-11T06:13:40.082Z</time>
      </trkpt>
      <trkpt lat="43.43062" lon="3.36278">
        <ele>81.11</ele>
        <time>2023-05-11T06:13:50.446Z</time>
      </trkpt>
      <trkpt lat="43.43059" lon="3.36263">
        <ele>78.91</ele>
        <time>2023-05-11T06:14:00.782Z</time>
      </trkpt>
      <trkpt lat="43.43057" lon="3.36243">
        <ele>77.76</ele>
        <time>2023-05-11T06:14:11.229Z</time>
      </trkpt>
      <trkpt lat="43.43054" lon="3.36224">
        <ele>78.09</ele>
        <time>2023-05-11T06:14:21.674Z</time>
      </trkpt>
      <trkpt lat="43.43065" lon="3.36216">
        <ele>76.06</ele>
        <time>2023-05-11T06:14:32.121Z</time>
      </trkpt>
      <trkpt lat="43.43078" lon="3.36209">
        <ele>75.95</ele>
        <time>2023-05-11T06:14:42.567Z</time>
      </trkpt>
      <trkpt lat="43.43092" lon="3.36203">
        <ele>75.63</ele>
        <time>2023-05-11T06:14:53.013Z</time>
      </trkpt>
      <trkpt lat="43.43103" lon="3.36202">
        <ele>73.18</ele>
        <time>2023-05-11T06:15:03.349Z</time>
      </trkpt>
      <trkpt lat="43.43106" lon="3.36207">
        <ele>72.37</ele>
        <time>2023-05-11T06:15:13.795Z</time>
      </trkpt>
      <trkpt lat="43.43108" lon="3.36204">
        <ele>74.33</ele>
        <time>2023-05-11T06:15:24.791Z</time>
      </trkpt>
      <trkpt lat="43.43108" lon="3.36206">
        <ele>75.89</ele>
        <time>2023-05-11T06:15:45.019Z</time>
      </trkpt>
      <trkpt lat="43.43113" lon="3.36225">
        <ele>74.78</ele>
        <time>2023-05-11T06:15:55.470Z</time>
      </trkpt>
      <trkpt lat="43.43123" lon="3.36242">
        <ele>75.46</ele>
        <time>2023-05-11T06:16:05.916Z</time>
      </trkpt>
      <trkpt lat="43.43125" lon="3.36245">
        <ele>76.35</ele>
        <time>2023-05-11T06:16:16.362Z</time>
      </trkpt>
      <trkpt lat="43.43133" lon="3.36262">
        <ele>75.97</ele>
        <time>2023-05-11T06:16:26.808Z</time>
      </trkpt>
      <trkpt lat="43.43141" lon="3.36277">
        <ele>76.29</ele>
        <time>2023-05-11T06:16:37.143Z</time>
      </trkpt>
      <trkpt lat="43.43149" lon="3.36291">
        <ele>76.23</ele>
        <time>2023-05-11T06:16:47.590Z</time>
      </trkpt>
      <trkpt lat="43.4316" lon="3.36304">
        <ele>75.9</ele>
        <time>2023-05-11T06:16:57.926Z</time>
      </trkpt>
      <trkpt lat="43.43168" lon="3.36321">
        <ele>74.18</ele>
        <time>2023-05-11T06:17:08.373Z</time>
      </trkpt>
      <trkpt lat="43.43177" lon="3.36335">
        <ele>76.16</ele>
        <time>2023-05-11T06:17:18.819Z</time>
      </trkpt>
      <trkpt lat="43.43188" lon="3.3635">
        <ele>77.6</ele>
        <time>2023-05-11T06:17:29.265Z</time>
      </trkpt>
      <trkpt lat="43.43197" lon="3.36365">
        <ele>75.57</ele>
        <time>2023-05-11T06:17:39.711Z</time>
      </trkpt>
      <trkpt lat="43.43196" lon="3.36365">
        <ele>75.35</ele>
        <time>2023-05-11T06:17:57.855Z</time>
      </trkpt>
      <trkpt lat="43.43197" lon="3.36367">
        <ele>76.13</ele>
        <time>2023-05-11T06:18:39.149Z</time>
      </trkpt>
      <trkpt lat="43.43212" lon="3.36387">
        <ele>78.58</ele>
        <time>2023-05-11T06:18:49.503Z</time>
      </trkpt>
      <trkpt lat="43.43215" lon="3.36406">
        <ele>77.53</ele>
        <time>2023-05-11T06:18:59.950Z</time>
      </trkpt>
      <trkpt lat="43.43224" lon="3.36424">
        <ele>79.33</ele>
        <time>2023-05-11T06:19:10.397Z</time>
      </trkpt>
      <trkpt lat="43.43233" lon="3.36441">
        <ele>81.44</ele>
        <time>2023-05-11T06:19:20.806Z</time>
      </trkpt>
      <trkpt lat="43.43236" lon="3.36461">
        <ele>78.04</ele>
        <time>2023-05-11T06:19:31.802Z</time>
      </trkpt>
      <trkpt lat="43.43243" lon="3.36477">
        <ele>77.78</ele>
        <time>2023-05-11T06:19:42.287Z</time>
      </trkpt>
      <trkpt lat="43.43249" lon="3.36495">
        <ele>77.11</ele>
        <time>2023-05-11T06:19:52.733Z</time>
      </trkpt>
      <trkpt lat="43.43253" lon="3.3651">
        <ele>74.92</ele>
        <time>2023-05-11T06:20:03.149Z</time>
      </trkpt>
      <trkpt lat="43.43262" lon="3.36529">
        <ele>75.16</ele>
        <time>2023-05-11T06:20:13.627Z</time>
      </trkpt>
      <trkpt lat="43.4327" lon="3.36541">
        <ele>76.09</ele>
        <time>2023-05-11T06:20:23.964Z</time>
      </trkpt>
      <trkpt lat="43.43273" lon="3.36561">
        <ele>69.92</ele>
        <time>2023-05-11T06:20:34.301Z</time>
      </trkpt>
      <trkpt lat="43.43288" lon="3.36572">
        <ele>73.92</ele>
        <time>2023-05-11T06:20:44.747Z</time>
      </trkpt>
      <trkpt lat="43.43297" lon="3.36584">
        <ele>76.7</ele>
        <time>2023-05-11T06:20:55.148Z</time>
      </trkpt>
      <trkpt lat="43.43308" lon="3.36601">
        <ele>77.36</ele>
        <time>2023-05-11T06:21:05.641Z</time>
      </trkpt>
      <trkpt lat="43.43319" lon="3.36611">
        <ele>76.49</ele>
        <time>2023-05-11T06:21:16.088Z</time>
      </trkpt>
      <trkpt lat="43.43326" lon="3.36625">
        <ele>72.67</ele>
        <time>2023-05-11T06:21:26.533Z</time>
      </trkpt>
      <trkpt lat="43.43337" lon="3.36636">
        <ele>72.04</ele>
        <time>2023-05-11T06:21:36.871Z</time>
      </trkpt>
      <trkpt lat="43.43357" lon="3.36645">
        <ele>73.89</ele>
        <time>2023-05-11T06:21:47.305Z</time>
      </trkpt>
      <trkpt lat="43.43361" lon="3.36661">
        <ele>72.7</ele>
        <time>2023-05-11T06:21:57.764Z</time>
      </trkpt>
      <trkpt lat="43.43369" lon="3.36675">
        <ele>72.78</ele>
        <time>2023-05-11T06:22:08.211Z</time>
      </trkpt>
      <trkpt lat="43.43389" lon="3.36684">
        <ele>76.98</ele>
        <time>2023-05-11T06:22:18.658Z</time>
      </trkpt>
      <trkpt lat="43.434" lon="3.36697">
        <ele>75.14</ele>
        <time>2023-05-11T06:22:29.105Z</time>
      </trkpt>
      <trkpt lat="43.43409" lon="3.36708">
        <ele>75.17</ele>
        <time>2023-05-11T06:22:39.552Z</time>
      </trkpt>
      <trkpt lat="43.43427" lon="3.3672">
        <ele>76.37</ele>
        <time>2023-05-11T06:22:49.998Z</time>
      </trkpt>
      <trkpt lat="43.43438" lon="3.3673">
        <ele>73.24</ele>
        <time>2023-05-11T06:23:00.445Z</time>
      </trkpt>
      <trkpt lat="43.4345" lon="3.36742">
        <ele>71.74</ele>
        <time>2023-05-11T06:23:10.892Z</time>
      </trkpt>
      <trkpt lat="43.43464" lon="3.36751">
        <ele>73.86</ele>
        <time>2023-05-11T06:23:21.339Z</time>
      </trkpt>
      <trkpt lat="43.43476" lon="3.36761">
        <ele>74.98</ele>
        <time>2023-05-11T06:23:31.786Z</time>
      </trkpt>
      <trkpt lat="43.43488" lon="3.36759">
        <ele>76.15</ele>
        <time>2023-05-11T06:23:42.232Z</time>
      </trkpt>
      <trkpt lat="43.43496" lon="3.36744">
        <ele>75.84</ele>
        <time>2023-05-11T06:23:52.679Z</time>
      </trkpt>
      <trkpt lat="43.43506" lon="3.3673">
        <ele>76.82</ele>
        <time>2023-05-11T06:24:03.126Z</time>
      </trkpt>
      <trkpt lat="43.43516" lon="3.36716">
        <ele>75.28</ele>
        <time>2023-05-11T06:24:13.573Z</time>
      </trkpt>
      <trkpt lat="43.43524" lon="3.36701">
        <ele>70.27</ele>
        <time>2023-05-11T06:24:24.020Z</time>
      </trkpt>
      <trkpt lat="43.43532" lon="3.36684">
        <ele>70.47</ele>
        <time>2023-05-11T06:24:34.467Z</time>
      </trkpt>
      <trkpt lat="43.43542" lon="3.36672">
        <ele>70.5</ele>
        <time>2023-05-11T06:24:44.804Z</time>
      </trkpt>
      <trkpt lat="43.4355" lon="3.36656">
        <ele>73.91</ele>
        <time>2023-05-11T06:24:55.203Z</time>
      </trkpt>
      <trkpt lat="43.43561" lon="3.36636">
        <ele>77.47</ele>
        <time>2023-05-11T06:25:05.698Z</time>
      </trkpt>
      <trkpt lat="43.43571" lon="3.36619">
        <ele>78.62</ele>
        <time>2023-05-11T06:25:16.102Z</time>
      </trkpt>
      <trkpt lat="43.43583" lon="3.36606">
        <ele>77.26</ele>
        <time>2023-05-11T06:25:26.424Z</time>
      </trkpt>
      <trkpt lat="43.43591" lon="3.36594">
        <ele>75.61</ele>
        <time>2023-05-11T06:25:36.925Z</time>
      </trkpt>
      <trkpt lat="43.43603" lon="3.36581">
        <ele>75.94</ele>
        <time>2023-05-11T06:25:47.375Z</time>
      </trkpt>
      <trkpt lat="43.43618" lon="3.3657">
        <ele>75.6</ele>
        <time>2023-05-11T06:25:57.822Z</time>
      </trkpt>
      <trkpt lat="43.4363" lon="3.36562">
        <ele>74.9</ele>
        <time>2023-05-11T06:26:08.269Z</time>
      </trkpt>
      <trkpt lat="43.43642" lon="3.36551">
        <ele>75.63</ele>
        <time>2023-05-11T06:26:18.715Z</time>
      </trkpt>
      <trkpt lat="43.43654" lon="3.3654">
        <ele>75.17</ele>
        <time>2023-05-11T06:26:29.149Z</time>
      </trkpt>
      <trkpt lat="43.43666" lon="3.36527">
        <ele>73.59</ele>
        <time>2023-05-11T06:26:39.599Z</time>
      </trkpt>
      <trkpt lat="43.43677" lon="3.36512">
        <ele>76.07</ele>
        <time>2023-05-11T06:26:50.046Z</time>
      </trkpt>
      <trkpt lat="43.43688" lon="3.36497">
        <ele>76.48</ele>
        <time>2023-05-11T06:27:00.446Z</time>
      </trkpt>
      <trkpt lat="43.43699" lon="3.36484">
        <ele>75.13</ele>
        <time>2023-05-11T06:27:10.939Z</time>
      </trkpt>
      <trkpt lat="43.43711" lon="3.36472">
        <ele>74.18</ele>
        <time>2023-05-11T06:27:21.386Z</time>
      </trkpt>
      <trkpt lat="43.43718" lon="3.3646">
        <ele>74.14</ele>
        <time>2023-05-11T06:27:31.833Z</time>
      </trkpt>
      <trkpt lat="43.43719" lon="3.36459">
        <ele>77.28</ele>
        <time>2023-05-11T06:27:43.929Z</time>
      </trkpt>
      <trkpt lat="43.43724" lon="3.36444">
        <ele>74.54</ele>
        <time>2023-05-11T06:27:54.376Z</time>
      </trkpt>
      <trkpt lat="43.43742" lon="3.36432">
        <ele>73.71</ele>
        <time>2023-05-11T06:28:04.822Z</time>
      </trkpt>
      <trkpt lat="43.43759" lon="3.3642">
        <ele>72.83</ele>
        <time>2023-05-11T06:28:15.269Z</time>
      </trkpt>
      <trkpt lat="43.4377" lon="3.36407">
        <ele>71.87</ele>
        <time>2023-05-11T06:28:25.716Z</time>
      </trkpt>
      <trkpt lat="43.43781" lon="3.36391">
        <ele>72.69</ele>
        <time>2023-05-11T06:28:36.149Z</time>
      </trkpt>
      <trkpt lat="43.43792" lon="3.36376">
        <ele>72.15</ele>
        <time>2023-05-11T06:28:46.609Z</time>
      </trkpt>
      <trkpt lat="43.43803" lon="3.36363">
        <ele>73.38</ele>
        <time>2023-05-11T06:28:57.055Z</time>
      </trkpt>
      <trkpt lat="43.43814" lon="3.36349">
        <ele>73.41</ele>
        <time>2023-05-11T06:29:07.502Z</time>
      </trkpt>
      <trkpt lat="43.43825" lon="3.36337">
        <ele>73.96</ele>
        <time>2023-05-11T06:29:17.949Z</time>
      </trkpt>
      <trkpt lat="43.43836" lon="3.36327">
        <ele>73.38</ele>
        <time>2023-05-11T06:29:28.361Z</time>
      </trkpt>
      <trkpt lat="43.43845" lon="3.36313">
        <ele>74.18</ele>
        <time>2023-05-11T06:29:38.841Z</time>
      </trkpt>
      <trkpt lat="43.43856" lon="3.36298">
        <ele>71.7</ele>
        <time>2023-05-11T06:29:49.288Z</time>
      </trkpt>
      <trkpt lat="43.43866" lon="3.36285">
        <ele>71.38</ele>
        <time>2023-05-11T06:29:59.734Z</time>
      </trkpt>
      <trkpt lat="43.43873" lon="3.3627">
        <ele>71.16</ele>
        <time>2023-05-11T06:30:10.731Z</time>
      </trkpt>
      <trkpt lat="43.43882" lon="3.36254">
        <ele>71.43</ele>
        <time>2023-05-11T06:30:21.149Z</time>
      </trkpt>
      <trkpt lat="43.43893" lon="3.36238">
        <ele>71.38</ele>
        <time>2023-05-11T06:30:31.623Z</time>
      </trkpt>
      <trkpt lat="43.43902" lon="3.36224">
        <ele>73.12</ele>
        <time>2023-05-11T06:30:41.960Z</time>
      </trkpt>
      <trkpt lat="43.4391" lon="3.3621">
        <ele>74.5</ele>
        <time>2023-05-11T06:30:52.296Z</time>
      </trkpt>
      <trkpt lat="43.43919" lon="3.36196">
        <ele>75.61</ele>
        <time>2023-05-11T06:31:02.743Z</time>
      </trkpt>
      <trkpt lat="43.43926" lon="3.3618">
        <ele>75.22</ele>
        <time>2023-05-11T06:31:13.149Z</time>
      </trkpt>
      <trkpt lat="43.43934" lon="3.36164">
        <ele>73.31</ele>
        <time>2023-05-11T06:31:23.635Z</time>
      </trkpt>
      <trkpt lat="43.43945" lon="3.36152">
        <ele>71.34</ele>
        <time>2023-05-11T06:31:34.082Z</time>
      </trkpt>
      <trkpt lat="43.4396" lon="3.36138">
        <ele>71.37</ele>
        <time>2023-05-11T06:31:44.528Z</time>
      </trkpt>
      <trkpt lat="43.43968" lon="3.36125">
        <ele>71.36</ele>
        <time>2023-05-11T06:31:54.975Z</time>
      </trkpt>
      <trkpt lat="43.43978" lon="3.36113">
        <ele>72.5</ele>
        <time>2023-05-11T06:32:05.421Z</time>
      </trkpt>
      <trkpt lat="43.43985" lon="3.361">
        <ele>73.14</ele>
        <time>2023-05-11T06:32:15.647Z</time>
      </trkpt>
      <trkpt lat="43.43994" lon="3.36085">
        <ele>76.87</ele>
        <time>2023-05-11T06:32:26.094Z</time>
      </trkpt>
      <trkpt lat="43.43997" lon="3.36064">
        <ele>77.62</ele>
        <time>2023-05-11T06:32:36.540Z</time>
      </trkpt>
      <trkpt lat="43.43992" lon="3.36046">
        <ele>76.61</ele>
        <time>2023-05-11T06:32:46.985Z</time>
      </trkpt>
      <trkpt lat="43.43987" lon="3.36025">
        <ele>75.02</ele>
        <time>2023-05-11T06:32:57.432Z</time>
      </trkpt>
      <trkpt lat="43.43982" lon="3.36008">
        <ele>75.38</ele>
        <time>2023-05-11T06:33:07.879Z</time>
      </trkpt>
      <trkpt lat="43.43979" lon="3.35989">
        <ele>72.96</ele>
        <time>2023-05-11T06:33:18.325Z</time>
      </trkpt>
      <trkpt lat="43.43976" lon="3.35968">
        <ele>73.33</ele>
        <time>2023-05-11T06:33:28.772Z</time>
      </trkpt>
      <trkpt lat="43.43977" lon="3.35952">
        <ele>72.94</ele>
        <time>2023-05-11T06:33:39.218Z</time>
      </trkpt>
      <trkpt lat="43.4398" lon="3.35934">
        <ele>72.96</ele>
        <time>2023-05-11T06:33:49.664Z</time>
      </trkpt>
      <trkpt lat="43.43985" lon="3.35917">
        <ele>72.49</ele>
        <time>2023-05-11T06:34:00.111Z</time>
      </trkpt>
      <trkpt lat="43.43992" lon="3.35899">
        <ele>72.87</ele>
        <time>2023-05-11T06:34:10.544Z</time>
      </trkpt>
      <trkpt lat="43.44002" lon="3.35885">
        <ele>72.93</ele>
        <time>2023-05-11T06:34:21.003Z</time>
      </trkpt>
      <trkpt lat="43.44009" lon="3.35867">
        <ele>71.67</ele>
        <time>2023-05-11T06:34:31.402Z</time>
      </trkpt>
      <trkpt lat="43.44014" lon="3.3585">
        <ele>71.45</ele>
        <time>2023-05-11T06:34:41.896Z</time>
      </trkpt>
      <trkpt lat="43.44025" lon="3.35834">
        <ele>70.56</ele>
        <time>2023-05-11T06:34:52.342Z</time>
      </trkpt>
      <trkpt lat="43.44037" lon="3.35823">
        <ele>71.47</ele>
        <time>2023-05-11T06:35:02.788Z</time>
      </trkpt>
      <trkpt lat="43.4405" lon="3.35829">
        <ele>73.6</ele>
        <time>2023-05-11T06:35:13.234Z</time>
      </trkpt>
      <trkpt lat="43.44063" lon="3.35836">
        <ele>72.27</ele>
        <time>2023-05-11T06:35:23.680Z</time>
      </trkpt>
      <trkpt lat="43.44075" lon="3.35843">
        <ele>70.82</ele>
        <time>2023-05-11T06:35:34.127Z</time>
      </trkpt>
      <trkpt lat="43.44089" lon="3.35847">
        <ele>71.34</ele>
        <time>2023-05-11T06:35:44.463Z</time>
      </trkpt>
      <trkpt lat="43.44104" lon="3.35842">
        <ele>69.46</ele>
        <time>2023-05-11T06:35:54.908Z</time>
      </trkpt>
      <trkpt lat="43.44113" lon="3.35823">
        <ele>69.25</ele>
        <time>2023-05-11T06:36:05.355Z</time>
      </trkpt>
      <trkpt lat="43.44121" lon="3.35813">
        <ele>69.24</ele>
        <time>2023-05-11T06:36:15.801Z</time>
      </trkpt>
      <trkpt lat="43.44129" lon="3.35795">
        <ele>70.81</ele>
        <time>2023-05-11T06:36:26.248Z</time>
      </trkpt>
      <trkpt lat="43.44134" lon="3.35776">
        <ele>67.68</ele>
        <time>2023-05-11T06:36:36.694Z</time>
      </trkpt>
      <trkpt lat="43.44139" lon="3.35757">
        <ele>66.25</ele>
        <time>2023-05-11T06:36:47.139Z</time>
      </trkpt>
      <trkpt lat="43.44141" lon="3.35739">
        <ele>66.36</ele>
        <time>2023-05-11T06:36:57.586Z</time>
      </trkpt>
      <trkpt lat="43.44144" lon="3.3573">
        <ele>67.56</ele>
        <time>2023-05-11T06:37:08.032Z</time>
      </trkpt>
      <trkpt lat="43.44149" lon="3.35734">
        <ele>67.38</ele>
        <time>2023-05-11T06:37:18.478Z</time>
      </trkpt>
      <trkpt lat="43.44156" lon="3.35742">
        <ele>67.41</ele>
        <time>2023-05-11T06:37:28.924Z</time>
      </trkpt>
      <trkpt lat="43.44165" lon="3.35756">
        <ele>66.53</ele>
        <time>2023-05-11T06:37:39.371Z</time>
      </trkpt>
      <trkpt lat="43.44177" lon="3.35759">
        <ele>65.55</ele>
        <time>2023-05-11T06:37:49.817Z</time>
      </trkpt>
      <trkpt lat="43.44188" lon="3.3577">
        <ele>65.83</ele>
        <time>2023-05-11T06:38:00.263Z</time>
      </trkpt>
      <trkpt lat="43.44193" lon="3.35785">
        <ele>64.91</ele>
        <time>2023-05-11T06:38:10.709Z</time>
      </trkpt>
      <trkpt lat="43.44199" lon="3.35798">
        <ele>66.2</ele>
        <time>2023-05-11T06:38:20.935Z</time>
      </trkpt>
      <trkpt lat="43.44207" lon="3.35815">
        <ele>66.72</ele>
        <time>2023-05-11T06:38:31.381Z</time>
      </trkpt>
      <trkpt lat="43.44208" lon="3.3583">
        <ele>67.36</ele>
        <time>2023-05-11T06:38:41.827Z</time>
      </trkpt>
      <trkpt lat="43.4422" lon="3.35837">
        <ele>67.08</ele>
        <time>2023-05-11T06:38:52.149Z</time>
      </trkpt>
      <trkpt lat="43.44234" lon="3.35842">
        <ele>68.37</ele>
        <time>2023-05-11T06:39:02.608Z</time>
      </trkpt>
      <trkpt lat="43.44244" lon="3.35854">
        <ele>69.23</ele>
        <time>2023-05-11T06:39:13.056Z</time>
      </trkpt>
      <trkpt lat="43.4425" lon="3.35869">
        <ele>68.23</ele>
        <time>2023-05-11T06:39:23.325Z</time>
      </trkpt>
      <trkpt lat="43.44258" lon="3.35885">
        <ele>68.8</ele>
        <time>2023-05-11T06:39:33.728Z</time>
      </trkpt>
      <trkpt lat="43.44271" lon="3.35901">
        <ele>71.29</ele>
        <time>2023-05-11T06:39:44.148Z</time>
      </trkpt>
      <trkpt lat="43.4428" lon="3.35913">
        <ele>71.6</ele>
        <time>2023-05-11T06:39:54.620Z</time>
      </trkpt>
      <trkpt lat="43.44291" lon="3.35926">
        <ele>73.16</ele>
        <time>2023-05-11T06:40:05.066Z</time>
      </trkpt>
      <trkpt lat="43.44293" lon="3.35942">
        <ele>73.66</ele>
        <time>2023-05-11T06:40:15.513Z</time>
      </trkpt>
      <trkpt lat="43.44283" lon="3.35955">
        <ele>73.66</ele>
        <time>2023-05-11T06:40:25.958Z</time>
      </trkpt>
      <trkpt lat="43.44279" lon="3.35969">
        <ele>72.52</ele>
        <time>2023-05-11T06:40:36.405Z</time>
      </trkpt>
      <trkpt lat="43.4428" lon="3.35989">
        <ele>75.34</ele>
        <time>2023-05-11T06:40:46.850Z</time>
      </trkpt>
      <trkpt lat="43.44278" lon="3.36005">
        <ele>75.59</ele>
        <time>2023-05-11T06:40:57.284Z</time>
      </trkpt>
      <trkpt lat="43.44279" lon="3.36015">
        <ele>75.07</ele>
        <time>2023-05-11T06:41:07.743Z</time>
      </trkpt>
      <trkpt lat="43.4428" lon="3.36014">
        <ele>74.37</ele>
        <time>2023-05-11T06:42:52.094Z</time>
      </trkpt>
      <trkpt lat="43.44288" lon="3.36033">
        <ele>73.81</ele>
        <time>2023-05-11T06:43:02.541Z</time>
      </trkpt>
      <trkpt lat="43.44292" lon="3.36049">
        <ele>73.83</ele>
        <time>2023-05-11T06:43:12.987Z</time>
      </trkpt>
      <trkpt lat="43.44297" lon="3.36062">
        <ele>75.86</ele>
        <time>2023-05-11T06:43:23.212Z</time>
      </trkpt>
      <trkpt lat="43.44299" lon="3.3607">
        <ele>75.12</ele>
        <time>2023-05-11T06:43:33.659Z</time>
      </trkpt>
      <trkpt lat="43.44302" lon="3.36081">
        <ele>75.79</ele>
        <time>2023-05-11T06:43:44.105Z</time>
      </trkpt>
      <trkpt lat="43.44305" lon="3.36096">
        <ele>76.46</ele>
        <time>2023-05-11T06:43:54.551Z</time>
      </trkpt>
      <trkpt lat="43.44304" lon="3.36113">
        <ele>74.79</ele>
        <time>2023-05-11T06:44:04.998Z</time>
      </trkpt>
      <trkpt lat="43.44307" lon="3.36127">
        <ele>73.69</ele>
        <time>2023-05-11T06:44:15.444Z</time>
      </trkpt>
      <trkpt lat="43.44313" lon="3.36135">
        <ele>74.59</ele>
        <time>2023-05-11T06:44:25.890Z</time>
      </trkpt>
      <trkpt lat="43.44314" lon="3.36149">
        <ele>75.96</ele>
        <time>2023-05-11T06:44:36.336Z</time>
      </trkpt>
      <trkpt lat="43.44318" lon="3.36164">
        <ele>76.03</ele>
        <time>2023-05-11T06:44:46.782Z</time>
      </trkpt>
      <trkpt lat="43.44323" lon="3.36175">
        <ele>76.61</ele>
        <time>2023-05-11T06:44:57.189Z</time>
      </trkpt>
      <trkpt lat="43.44323" lon="3.36188">
        <ele>77.15</ele>
        <time>2023-05-11T06:45:07.675Z</time>
      </trkpt>
      <trkpt lat="43.44329" lon="3.36198">
        <ele>78.22</ele>
        <time>2023-05-11T06:45:18.121Z</time>
      </trkpt>
      <trkpt lat="43.44334" lon="3.36203">
        <ele>77.41</ele>
        <time>2023-05-11T06:45:28.567Z</time>
      </trkpt>
      <trkpt lat="43.44339" lon="3.36211">
        <ele>76.71</ele>
        <time>2023-05-11T06:45:39.013Z</time>
      </trkpt>
      <trkpt lat="43.44351" lon="3.36221">
        <ele>76.98</ele>
        <time>2023-05-11T06:45:49.459Z</time>
      </trkpt>
      <trkpt lat="43.44355" lon="3.36233">
        <ele>78.09</ele>
        <time>2023-05-11T06:45:59.905Z</time>
      </trkpt>
      <trkpt lat="43.44364" lon="3.3624">
        <ele>77.77</ele>
        <time>2023-05-11T06:46:10.352Z</time>
      </trkpt>
      <trkpt lat="43.44372" lon="3.36244">
        <ele>78.87</ele>
        <time>2023-05-11T06:46:20.798Z</time>
      </trkpt>
      <trkpt lat="43.44382" lon="3.36251">
        <ele>80.1</ele>
        <time>2023-05-11T06:46:31.244Z</time>
      </trkpt>
      <trkpt lat="43.44391" lon="3.36252">
        <ele>80.75</ele>
        <time>2023-05-11T06:46:41.690Z</time>
      </trkpt>
      <trkpt lat="43.44398" lon="3.36265">
        <ele>83.6</ele>
        <time>2023-05-11T06:46:52.136Z</time>
      </trkpt>
      <trkpt lat="43.44406" lon="3.36282">
        <ele>86.83</ele>
        <time>2023-05-11T06:47:02.446Z</time>
      </trkpt>
      <trkpt lat="43.44415" lon="3.3629">
        <ele>85.67</ele>
        <time>2023-05-11T06:47:12.918Z</time>
      </trkpt>
      <trkpt lat="43.44425" lon="3.36297">
        <ele>83.11</ele>
        <time>2023-05-11T06:47:23.365Z</time>
      </trkpt>
      <trkpt lat="43.44438" lon="3.36297">
        <ele>84.49</ele>
        <time>2023-05-11T06:47:33.811Z</time>
      </trkpt>
      <trkpt lat="43.44451" lon="3.36305">
        <ele>86.57</ele>
        <time>2023-05-11T06:47:44.146Z</time>
      </trkpt>
      <trkpt lat="43.44463" lon="3.36312">
        <ele>87.74</ele>
        <time>2023-05-11T06:47:54.483Z</time>
      </trkpt>
      <trkpt lat="43.44474" lon="3.3632">
        <ele>88.47</ele>
        <time>2023-05-11T06:48:04.929Z</time>
      </trkpt>
      <trkpt lat="43.44477" lon="3.36339">
        <ele>88.73</ele>
        <time>2023-05-11T06:48:15.375Z</time>
      </trkpt>
      <trkpt lat="43.44477" lon="3.36339">
        <ele>88.86</ele>
        <time>2023-05-11T06:54:53.382Z</time>
      </trkpt>
      <trkpt lat="43.44479" lon="3.36357">
        <ele>90.05</ele>
        <time>2023-05-11T06:55:03.838Z</time>
      </trkpt>
      <trkpt lat="43.44479" lon="3.36377">
        <ele>88.64</ele>
        <time>2023-05-11T06:55:14.285Z</time>
      </trkpt>
      <trkpt lat="43.44475" lon="3.36393">
        <ele>88.02</ele>
        <time>2023-05-11T06:55:24.741Z</time>
      </trkpt>
      <trkpt lat="43.44473" lon="3.36411">
        <ele>86.91</ele>
        <time>2023-05-11T06:55:35.187Z</time>
      </trkpt>
      <trkpt lat="43.4447" lon="3.36431">
        <ele>88.01</ele>
        <time>2023-05-11T06:55:45.643Z</time>
      </trkpt>
      <trkpt lat="43.44465" lon="3.36448">
        <ele>90.28</ele>
        <time>2023-05-11T06:55:56.110Z</time>
      </trkpt>
      <trkpt lat="43.44464" lon="3.36463">
        <ele>90.66</ele>
        <time>2023-05-11T06:56:06.576Z</time>
      </trkpt>
      <trkpt lat="43.44474" lon="3.36467">
        <ele>91.05</ele>
        <time>2023-05-11T06:56:17.032Z</time>
      </trkpt>
      <trkpt lat="43.44485" lon="3.36464">
        <ele>91.26</ele>
        <time>2023-05-11T06:56:27.477Z</time>
      </trkpt>
      <trkpt lat="43.44496" lon="3.36458">
        <ele>92.5</ele>
        <time>2023-05-11T06:56:37.924Z</time>
      </trkpt>
      <trkpt lat="43.44507" lon="3.36448">
        <ele>94.94</ele>
        <time>2023-05-11T06:56:48.371Z</time>
      </trkpt>
      <trkpt lat="43.44521" lon="3.36438">
        <ele>94.12</ele>
        <time>2023-05-11T06:56:58.816Z</time>
      </trkpt>
      <trkpt lat="43.44532" lon="3.36428">
        <ele>92.58</ele>
        <time>2023-05-11T06:57:09.263Z</time>
      </trkpt>
      <trkpt lat="43.44543" lon="3.36417">
        <ele>92.2</ele>
        <time>2023-05-11T06:57:19.709Z</time>
      </trkpt>
      <trkpt lat="43.44554" lon="3.36405">
        <ele>91.64</ele>
        <time>2023-05-11T06:57:29.716Z</time>
      </trkpt>
      <trkpt lat="43.44567" lon="3.36394">
        <ele>89.47</ele>
        <time>2023-05-11T06:57:40.062Z</time>
      </trkpt>
      <trkpt lat="43.44578" lon="3.36383">
        <ele>88.52</ele>
        <time>2023-05-11T06:57:50.508Z</time>
      </trkpt>
      <trkpt lat="43.4459" lon="3.36373">
        <ele>87.65</ele>
        <time>2023-05-11T06:58:00.964Z</time>
      </trkpt>
      <trkpt lat="43.44601" lon="3.36361">
        <ele>86.72</ele>
        <time>2023-05-11T06:58:11.301Z</time>
      </trkpt>
      <trkpt lat="43.44611" lon="3.36349">
        <ele>86.24</ele>
        <time>2023-05-11T06:58:21.757Z</time>
      </trkpt>
      <trkpt lat="43.44622" lon="3.36338">
        <ele>85.76</ele>
        <time>2023-05-11T06:58:32.189Z</time>
      </trkpt>
      <trkpt lat="43.44632" lon="3.36327">
        <ele>84.11</ele>
        <time>2023-05-11T06:58:42.659Z</time>
      </trkpt>
      <trkpt lat="43.44646" lon="3.36315">
        <ele>87.13</ele>
        <time>2023-05-11T06:58:53.106Z</time>
      </trkpt>
      <trkpt lat="43.44646" lon="3.36329">
        <ele>85.03</ele>
        <time>2023-05-11T06:59:03.576Z</time>
      </trkpt>
      <trkpt lat="43.44663" lon="3.36343">
        <ele>84.39</ele>
        <time>2023-05-11T06:59:14.018Z</time>
      </trkpt>
      <trkpt lat="43.4467" lon="3.36356">
        <ele>83.57</ele>
        <time>2023-05-11T06:59:24.475Z</time>
      </trkpt>
      <trkpt lat="43.44678" lon="3.36371">
        <ele>80.54</ele>
        <time>2023-05-11T06:59:34.934Z</time>
      </trkpt>
      <trkpt lat="43.44685" lon="3.36384">
        <ele>79.36</ele>
        <time>2023-05-11T06:59:45.367Z</time>
      </trkpt>
      <trkpt lat="43.44692" lon="3.36397">
        <ele>77.7</ele>
        <time>2023-05-11T06:59:55.833Z</time>
      </trkpt>
      <trkpt lat="43.44704" lon="3.36409">
        <ele>77.81</ele>
        <time>2023-05-11T07:00:06.280Z</time>
      </trkpt>
      <trkpt lat="43.44713" lon="3.36424">
        <ele>75.31</ele>
        <time>2023-05-11T07:00:16.698Z</time>
      </trkpt>
      <trkpt lat="43.44723" lon="3.36434">
        <ele>73.62</ele>
        <time>2023-05-11T07:00:27.189Z</time>
      </trkpt>
      <trkpt lat="43.44732" lon="3.36444">
        <ele>72.93</ele>
        <time>2023-05-11T07:00:37.638Z</time>
      </trkpt>
      <trkpt lat="43.44742" lon="3.36452">
        <ele>72.62</ele>
        <time>2023-05-11T07:00:47.975Z</time>
      </trkpt>
      <trkpt lat="43.44754" lon="3.36462">
        <ele>72.57</ele>
        <time>2023-05-11T07:00:58.394Z</time>
      </trkpt>
      <trkpt lat="43.4476" lon="3.36476">
        <ele>72.15</ele>
        <time>2023-05-11T07:01:08.907Z</time>
      </trkpt>
      <trkpt lat="43.44772" lon="3.36482">
        <ele>68.86</ele>
        <time>2023-05-11T07:01:19.913Z</time>
      </trkpt>
      <trkpt lat="43.44776" lon="3.36477">
        <ele>69.65</ele>
        <time>2023-05-11T07:01:30.368Z</time>
      </trkpt>
      <trkpt lat="43.44789" lon="3.36465">
        <ele>70.85</ele>
        <time>2023-05-11T07:01:40.396Z</time>
      </trkpt>
      <trkpt lat="43.44799" lon="3.36456">
        <ele>71.44</ele>
        <time>2023-05-11T07:01:50.841Z</time>
      </trkpt>
      <trkpt lat="43.44807" lon="3.36456">
        <ele>72.26</ele>
        <time>2023-05-11T07:02:01.298Z</time>
      </trkpt>
      <trkpt lat="43.44816" lon="3.36451">
        <ele>70.38</ele>
        <time>2023-05-11T07:02:11.754Z</time>
      </trkpt>
      <trkpt lat="43.44826" lon="3.36444">
        <ele>69.82</ele>
        <time>2023-05-11T07:02:22.189Z</time>
      </trkpt>
      <trkpt lat="43.44837" lon="3.36441">
        <ele>67.96</ele>
        <time>2023-05-11T07:02:32.657Z</time>
      </trkpt>
      <trkpt lat="43.44847" lon="3.36448">
        <ele>63.73</ele>
        <time>2023-05-11T07:02:43.103Z</time>
      </trkpt>
      <trkpt lat="43.44859" lon="3.36456">
        <ele>64.23</ele>
        <time>2023-05-11T07:02:53.584Z</time>
      </trkpt>
      <trkpt lat="43.44865" lon="3.36465">
        <ele>67.96</ele>
        <time>2023-05-11T07:03:04.016Z</time>
      </trkpt>
      <trkpt lat="43.44869" lon="3.3648">
        <ele>68.64</ele>
        <time>2023-05-11T07:03:14.268Z</time>
      </trkpt>
      <trkpt lat="43.44876" lon="3.36498">
        <ele>70.9</ele>
        <time>2023-05-11T07:03:24.698Z</time>
      </trkpt>
      <trkpt lat="43.44882" lon="3.36505">
        <ele>72.24</ele>
        <time>2023-05-11T07:03:35.145Z</time>
      </trkpt>
      <trkpt lat="43.44888" lon="3.36522">
        <ele>71.65</ele>
        <time>2023-05-11T07:03:46.102Z</time>
      </trkpt>
      <trkpt lat="43.44899" lon="3.36535">
        <ele>68.35</ele>
        <time>2023-05-11T07:03:56.597Z</time>
      </trkpt>
      <trkpt lat="43.44911" lon="3.36543">
        <ele>67.97</ele>
        <time>2023-05-11T07:04:07.043Z</time>
      </trkpt>
      <trkpt lat="43.44922" lon="3.36549">
        <ele>67.86</ele>
        <time>2023-05-11T07:04:17.489Z</time>
      </trkpt>
      <trkpt lat="43.44935" lon="3.36562">
        <ele>69.33</ele>
        <time>2023-05-11T07:04:27.946Z</time>
      </trkpt>
      <trkpt lat="43.44942" lon="3.3658">
        <ele>67.63</ele>
        <time>2023-05-11T07:04:38.392Z</time>
      </trkpt>
      <trkpt lat="43.44948" lon="3.36596">
        <ele>67.9</ele>
        <time>2023-05-11T07:04:48.848Z</time>
      </trkpt>
      <trkpt lat="43.44959" lon="3.36605">
        <ele>67.95</ele>
        <time>2023-05-11T07:04:59.294Z</time>
      </trkpt>
      <trkpt lat="43.4497" lon="3.36615">
        <ele>69.94</ele>
        <time>2023-05-11T07:05:09.761Z</time>
      </trkpt>
      <trkpt lat="43.44969" lon="3.36633">
        <ele>71</ele>
        <time>2023-05-11T07:05:20.189Z</time>
      </trkpt>
      <trkpt lat="43.44965" lon="3.36651">
        <ele>71.03</ele>
        <time>2023-05-11T07:05:30.682Z</time>
      </trkpt>
      <trkpt lat="43.44962" lon="3.36667">
        <ele>71.5</ele>
        <time>2023-05-11T07:05:41.155Z</time>
      </trkpt>
      <trkpt lat="43.4497" lon="3.3666">
        <ele>70.25</ele>
        <time>2023-05-11T07:05:51.586Z</time>
      </trkpt>
      <trkpt lat="43.44981" lon="3.36646">
        <ele>70.43</ele>
        <time>2023-05-11T07:06:02.032Z</time>
      </trkpt>
      <trkpt lat="43.44993" lon="3.36636">
        <ele>70.02</ele>
        <time>2023-05-11T07:06:12.478Z</time>
      </trkpt>
      <trkpt lat="43.45005" lon="3.36637">
        <ele>70.63</ele>
        <time>2023-05-11T07:06:22.924Z</time>
      </trkpt>
      <trkpt lat="43.45018" lon="3.36634">
        <ele>71.37</ele>
        <time>2023-05-11T07:06:33.260Z</time>
      </trkpt>
      <trkpt lat="43.45031" lon="3.3663">
        <ele>68.87</ele>
        <time>2023-05-11T07:06:43.707Z</time>
      </trkpt>
      <trkpt lat="43.45045" lon="3.36632">
        <ele>68.54</ele>
        <time>2023-05-11T07:06:54.153Z</time>
      </trkpt>
      <trkpt lat="43.45058" lon="3.3664">
        <ele>67.36</ele>
        <time>2023-05-11T07:07:04.609Z</time>
      </trkpt>
      <trkpt lat="43.45072" lon="3.36642">
        <ele>66.65</ele>
        <time>2023-05-11T07:07:15.030Z</time>
      </trkpt>
      <trkpt lat="43.45086" lon="3.36639">
        <ele>68.04</ele>
        <time>2023-05-11T07:07:25.502Z</time>
      </trkpt>
      <trkpt lat="43.45097" lon="3.36638">
        <ele>67.79</ele>
        <time>2023-05-11T07:07:35.948Z</time>
      </trkpt>
      <trkpt lat="43.45113" lon="3.36631">
        <ele>66.27</ele>
        <time>2023-05-11T07:07:46.405Z</time>
      </trkpt>
      <trkpt lat="43.45125" lon="3.36631">
        <ele>66.19</ele>
        <time>2023-05-11T07:07:56.851Z</time>
      </trkpt>
      <trkpt lat="43.45139" lon="3.36631">
        <ele>65.14</ele>
        <time>2023-05-11T07:08:07.297Z</time>
      </trkpt>
      <trkpt lat="43.45152" lon="3.36623">
        <ele>65.56</ele>
        <time>2023-05-11T07:08:17.753Z</time>
      </trkpt>
      <trkpt lat="43.45164" lon="3.36616">
        <ele>65.26</ele>
        <time>2023-05-11T07:08:28.090Z</time>
      </trkpt>
      <trkpt lat="43.45179" lon="3.36618">
        <ele>62.65</ele>
        <time>2023-05-11T07:08:38.536Z</time>
      </trkpt>
      <trkpt lat="43.4519" lon="3.36609">
        <ele>62.8</ele>
        <time>2023-05-11T07:08:49.002Z</time>
      </trkpt>
      <trkpt lat="43.45204" lon="3.36601">
        <ele>63.14</ele>
        <time>2023-05-11T07:08:59.449Z</time>
      </trkpt>
      <trkpt lat="43.45215" lon="3.36597">
        <ele>61.59</ele>
        <time>2023-05-11T07:09:09.785Z</time>
      </trkpt>
      <trkpt lat="43.45225" lon="3.36598">
        <ele>61.77</ele>
        <time>2023-05-11T07:09:20.229Z</time>
      </trkpt>
      <trkpt lat="43.45238" lon="3.36608">
        <ele>60.95</ele>
        <time>2023-05-11T07:09:30.698Z</time>
      </trkpt>
      <trkpt lat="43.45255" lon="3.3661">
        <ele>59.63</ele>
        <time>2023-05-11T07:09:41.164Z</time>
      </trkpt>
      <trkpt lat="43.45268" lon="3.36604">
        <ele>60.97</ele>
        <time>2023-05-11T07:09:51.592Z</time>
      </trkpt>
      <trkpt lat="43.45279" lon="3.36588">
        <ele>59.22</ele>
        <time>2023-05-11T07:10:02.097Z</time>
      </trkpt>
      <trkpt lat="43.45289" lon="3.36575">
        <ele>60.42</ele>
        <time>2023-05-11T07:10:12.542Z</time>
      </trkpt>
      <trkpt lat="43.45299" lon="3.36569">
        <ele>58.42</ele>
        <time>2023-05-11T07:10:22.989Z</time>
      </trkpt>
      <trkpt lat="43.4531" lon="3.36558">
        <ele>58.91</ele>
        <time>2023-05-11T07:10:33.453Z</time>
      </trkpt>
      <trkpt lat="43.45317" lon="3.36543">
        <ele>59.46</ele>
        <time>2023-05-11T07:10:43.845Z</time>
      </trkpt>
      <trkpt lat="43.45324" lon="3.36526">
        <ele>60.58</ele>
        <time>2023-05-11T07:10:54.338Z</time>
      </trkpt>
      <trkpt lat="43.45334" lon="3.36519">
        <ele>59.96</ele>
        <time>2023-05-11T07:11:04.794Z</time>
      </trkpt>
      <trkpt lat="43.45347" lon="3.36518">
        <ele>59.72</ele>
        <time>2023-05-11T07:11:15.229Z</time>
      </trkpt>
      <trkpt lat="43.45363" lon="3.36517">
        <ele>58.79</ele>
        <time>2023-05-11T07:11:25.687Z</time>
      </trkpt>
      <trkpt lat="43.45365" lon="3.36535">
        <ele>56.29</ele>
        <time>2023-05-11T07:11:36.133Z</time>
      </trkpt>
      <trkpt lat="43.45369" lon="3.36543">
        <ele>55.13</ele>
        <time>2023-05-11T07:11:46.589Z</time>
      </trkpt>
      <trkpt lat="43.45376" lon="3.36537">
        <ele>54.83</ele>
        <time>2023-05-11T07:11:56.940Z</time>
      </trkpt>
      <trkpt lat="43.45389" lon="3.36534">
        <ele>54.66</ele>
        <time>2023-05-11T07:12:07.372Z</time>
      </trkpt>
      <trkpt lat="43.45403" lon="3.36538">
        <ele>54.85</ele>
        <time>2023-05-11T07:12:17.828Z</time>
      </trkpt>
      <trkpt lat="43.45415" lon="3.36545">
        <ele>54.15</ele>
        <time>2023-05-11T07:12:28.229Z</time>
      </trkpt>
      <trkpt lat="43.45429" lon="3.36552">
        <ele>53.86</ele>
        <time>2023-05-11T07:12:38.720Z</time>
      </trkpt>
      <trkpt lat="43.45441" lon="3.36557">
        <ele>54.45</ele>
        <time>2023-05-11T07:12:49.166Z</time>
      </trkpt>
      <trkpt lat="43.45453" lon="3.36567">
        <ele>53.82</ele>
        <time>2023-05-11T07:12:59.575Z</time>
      </trkpt>
      <trkpt lat="43.45466" lon="3.36574">
        <ele>54.32</ele>
        <time>2023-05-11T07:13:10.059Z</time>
      </trkpt>
      <trkpt lat="43.45477" lon="3.36575">
        <ele>55.12</ele>
        <time>2023-05-11T07:13:20.505Z</time>
      </trkpt>
      <trkpt lat="43.45492" lon="3.36578">
        <ele>55.45</ele>
        <time>2023-05-11T07:13:30.961Z</time>
      </trkpt>
      <trkpt lat="43.45506" lon="3.36586">
        <ele>56.56</ele>
        <time>2023-05-11T07:13:41.407Z</time>
      </trkpt>
      <trkpt lat="43.45513" lon="3.366">
        <ele>56.09</ele>
        <time>2023-05-11T07:13:51.854Z</time>
      </trkpt>
      <trkpt lat="43.45519" lon="3.36617">
        <ele>58.84</ele>
        <time>2023-05-11T07:14:02.300Z</time>
      </trkpt>
      <trkpt lat="43.45529" lon="3.3663">
        <ele>60.31</ele>
        <time>2023-05-11T07:14:12.776Z</time>
      </trkpt>
      <trkpt lat="43.45531" lon="3.36648">
        <ele>61.64</ele>
        <time>2023-05-11T07:14:23.222Z</time>
      </trkpt>
      <trkpt lat="43.45528" lon="3.36665">
        <ele>61.58</ele>
        <time>2023-05-11T07:14:33.688Z</time>
      </trkpt>
      <trkpt lat="43.45525" lon="3.36683">
        <ele>59.73</ele>
        <time>2023-05-11T07:14:44.134Z</time>
      </trkpt>
      <trkpt lat="43.45518" lon="3.36701">
        <ele>57.94</ele>
        <time>2023-05-11T07:14:54.581Z</time>
      </trkpt>
      <trkpt lat="43.4551" lon="3.36715">
        <ele>58.27</ele>
        <time>2023-05-11T07:15:05.027Z</time>
      </trkpt>
      <trkpt lat="43.45502" lon="3.36729">
        <ele>60.13</ele>
        <time>2023-05-11T07:15:15.483Z</time>
      </trkpt>
      <trkpt lat="43.45495" lon="3.36743">
        <ele>59.75</ele>
        <time>2023-05-11T07:15:25.938Z</time>
      </trkpt>
      <trkpt lat="43.45492" lon="3.36758">
        <ele>58.37</ele>
        <time>2023-05-11T07:15:36.385Z</time>
      </trkpt>
      <trkpt lat="43.45501" lon="3.36766">
        <ele>59.58</ele>
        <time>2023-05-11T07:15:46.941Z</time>
      </trkpt>
      <trkpt lat="43.45511" lon="3.36766">
        <ele>61.31</ele>
        <time>2023-05-11T07:15:57.388Z</time>
      </trkpt>
      <trkpt lat="43.45522" lon="3.36761">
        <ele>59.56</ele>
        <time>2023-05-11T07:16:07.930Z</time>
      </trkpt>
      <trkpt lat="43.45531" lon="3.36758">
        <ele>57.85</ele>
        <time>2023-05-11T07:16:18.312Z</time>
      </trkpt>
      <trkpt lat="43.45542" lon="3.36753">
        <ele>56.33</ele>
        <time>2023-05-11T07:16:28.756Z</time>
      </trkpt>
      <trkpt lat="43.45553" lon="3.36747">
        <ele>57.25</ele>
        <time>2023-05-11T07:16:39.203Z</time>
      </trkpt>
      <trkpt lat="43.45559" lon="3.36755">
        <ele>54.7</ele>
        <time>2023-05-11T07:16:49.649Z</time>
      </trkpt>
      <trkpt lat="43.45567" lon="3.3676">
        <ele>54.76</ele>
        <time>2023-05-11T07:17:00.095Z</time>
      </trkpt>
      <trkpt lat="43.45571" lon="3.36756">
        <ele>53.78</ele>
        <time>2023-05-11T07:17:10.541Z</time>
      </trkpt>
      <trkpt lat="43.45573" lon="3.36743">
        <ele>52.23</ele>
        <time>2023-05-11T07:17:20.988Z</time>
      </trkpt>
      <trkpt lat="43.45584" lon="3.36741">
        <ele>52.97</ele>
        <time>2023-05-11T07:17:31.444Z</time>
      </trkpt>
      <trkpt lat="43.45593" lon="3.3673">
        <ele>51.81</ele>
        <time>2023-05-11T07:17:41.900Z</time>
      </trkpt>
      <trkpt lat="43.45599" lon="3.36711">
        <ele>50.36</ele>
        <time>2023-05-11T07:17:52.229Z</time>
      </trkpt>
      <trkpt lat="43.45601" lon="3.36696">
        <ele>49.05</ele>
        <time>2023-05-11T07:18:02.656Z</time>
      </trkpt>
      <trkpt lat="43.45602" lon="3.36676">
        <ele>48.34</ele>
        <time>2023-05-11T07:18:13.139Z</time>
      </trkpt>
      <trkpt lat="43.45603" lon="3.36659">
        <ele>47.13</ele>
        <time>2023-05-11T07:18:23.155Z</time>
      </trkpt>
      <trkpt lat="43.45602" lon="3.36643">
        <ele>54.3</ele>
      </trkpt>
      <trkpt lat="43.45604" lon="3.36643">
        <ele>44.62</ele>
        <time>2023-05-11T07:18:33.611Z</time>
      </trkpt>
      <trkpt lat="43.45603" lon="3.36627">
        <ele>54.1</ele>
        <time>2023-05-11T07:18:44.056Z</time>
      </trkpt>
      <trkpt lat="43.45607" lon="3.36609">
        <ele>43.07</ele>
        <time>2023-05-11T07:18:54.500Z</time>
      </trkpt>
      <trkpt lat="43.45617" lon="3.36608">
        <ele>44.29</ele>
        <time>2023-05-11T07:19:04.904Z</time>
      </trkpt>
      <trkpt lat="43.4563" lon="3.36617">
        <ele>45.7</ele>
        <time>2023-05-11T07:19:15.396Z</time>
      </trkpt>
      <trkpt lat="43.45643" lon="3.36627">
        <ele>46.4</ele>
        <time>2023-05-11T07:19:25.852Z</time>
      </trkpt>
      <trkpt lat="43.45651" lon="3.36644">
        <ele>51.4</ele>
        <time>2023-05-11T07:19:36.298Z</time>
      </trkpt>
      <trkpt lat="43.45656" lon="3.36662">
        <ele>51.6</ele>
        <time>2023-05-11T07:19:46.755Z</time>
      </trkpt>
      <trkpt lat="43.45667" lon="3.3667">
        <ele>47.05</ele>
        <time>2023-05-11T07:19:57.201Z</time>
      </trkpt>
      <trkpt lat="43.45679" lon="3.36669">
        <ele>48.16</ele>
        <time>2023-05-11T07:20:07.689Z</time>
      </trkpt>
      <trkpt lat="43.45681" lon="3.36683">
        <ele>48.68</ele>
        <time>2023-05-11T07:20:18.113Z</time>
      </trkpt>
      <trkpt lat="43.45679" lon="3.36703">
        <ele>48.41</ele>
        <time>2023-05-11T07:20:28.568Z</time>
      </trkpt>
      <trkpt lat="43.45679" lon="3.36722">
        <ele>47.2</ele>
        <time>2023-05-11T07:20:39.016Z</time>
      </trkpt>
      <trkpt lat="43.45683" lon="3.36737">
        <ele>46.75</ele>
        <time>2023-05-11T07:20:49.462Z</time>
      </trkpt>
      <trkpt lat="43.45685" lon="3.36757">
        <ele>46.84</ele>
        <time>2023-05-11T07:20:59.485Z</time>
      </trkpt>
      <trkpt lat="43.45685" lon="3.36776">
        <ele>45.19</ele>
        <time>2023-05-11T07:21:09.934Z</time>
      </trkpt>
      <trkpt lat="43.45682" lon="3.36794">
        <ele>44.24</ele>
        <time>2023-05-11T07:21:19.941Z</time>
      </trkpt>
      <trkpt lat="43.45687" lon="3.36813">
        <ele>45.26</ele>
        <time>2023-05-11T07:21:30.387Z</time>
      </trkpt>
      <trkpt lat="43.45688" lon="3.36833">
        <ele>46.01</ele>
        <time>2023-05-11T07:21:40.833Z</time>
      </trkpt>
      <trkpt lat="43.45681" lon="3.36848">
        <ele>45.86</ele>
        <time>2023-05-11T07:21:51.756Z</time>
      </trkpt>
      <trkpt lat="43.45674" lon="3.36857">
        <ele>43.92</ele>
        <time>2023-05-11T07:22:02.055Z</time>
      </trkpt>
      <trkpt lat="43.45681" lon="3.36871">
        <ele>45.61</ele>
        <time>2023-05-11T07:22:12.522Z</time>
      </trkpt>
      <trkpt lat="43.45686" lon="3.36883">
        <ele>44.68</ele>
        <time>2023-05-11T07:22:22.978Z</time>
      </trkpt>
      <trkpt lat="43.45695" lon="3.36892">
        <ele>43.82</ele>
        <time>2023-05-11T07:22:33.424Z</time>
      </trkpt>
      <trkpt lat="43.45707" lon="3.36893">
        <ele>44.48</ele>
        <time>2023-05-11T07:22:43.870Z</time>
      </trkpt>
      <trkpt lat="43.4572" lon="3.36891">
        <ele>46.85</ele>
        <time>2023-05-11T07:22:54.336Z</time>
      </trkpt>
      <trkpt lat="43.45735" lon="3.36884">
        <ele>48.88</ele>
        <time>2023-05-11T07:23:04.797Z</time>
      </trkpt>
      <trkpt lat="43.4575" lon="3.36876">
        <ele>49.76</ele>
        <time>2023-05-11T07:23:15.229Z</time>
      </trkpt>
      <trkpt lat="43.45763" lon="3.36871">
        <ele>50.29</ele>
        <time>2023-05-11T07:23:25.705Z</time>
      </trkpt>
      <trkpt lat="43.45775" lon="3.36866">
        <ele>48.25</ele>
        <time>2023-05-11T07:23:36.151Z</time>
      </trkpt>
      <trkpt lat="43.45787" lon="3.36858">
        <ele>48.21</ele>
        <time>2023-05-11T07:23:46.581Z</time>
      </trkpt>
      <trkpt lat="43.458" lon="3.36853">
        <ele>46.98</ele>
        <time>2023-05-11T07:23:57.054Z</time>
      </trkpt>
      <trkpt lat="43.45815" lon="3.36849">
        <ele>47.6</ele>
        <time>2023-05-11T07:24:07.500Z</time>
      </trkpt>
      <trkpt lat="43.45828" lon="3.36847">
        <ele>42.93</ele>
        <time>2023-05-11T07:24:17.947Z</time>
      </trkpt>
      <trkpt lat="43.45837" lon="3.36843">
        <ele>43.49</ele>
        <time>2023-05-11T07:24:28.393Z</time>
      </trkpt>
      <trkpt lat="43.4585" lon="3.36837">
        <ele>44.2</ele>
        <time>2023-05-11T07:24:38.860Z</time>
      </trkpt>
      <trkpt lat="43.45865" lon="3.3683">
        <ele>44.85</ele>
        <time>2023-05-11T07:24:49.311Z</time>
      </trkpt>
      <trkpt lat="43.45875" lon="3.36819">
        <ele>47.01</ele>
        <time>2023-05-11T07:24:59.752Z</time>
      </trkpt>
      <trkpt lat="43.45887" lon="3.36801">
        <ele>46.91</ele>
        <time>2023-05-11T07:25:09.793Z</time>
      </trkpt>
      <trkpt lat="43.45899" lon="3.36786">
        <ele>46.78</ele>
        <time>2023-05-11T07:25:20.216Z</time>
      </trkpt>
      <trkpt lat="43.4591" lon="3.36778">
        <ele>47.31</ele>
        <time>2023-05-11T07:25:30.552Z</time>
      </trkpt>
      <trkpt lat="43.45919" lon="3.36773">
        <ele>45.1</ele>
        <time>2023-05-11T07:25:41.118Z</time>
      </trkpt>
      <trkpt lat="43.45935" lon="3.36761">
        <ele>46.65</ele>
        <time>2023-05-11T07:25:51.564Z</time>
      </trkpt>
      <trkpt lat="43.45946" lon="3.36751">
        <ele>47.67</ele>
        <time>2023-05-11T07:26:02.021Z</time>
      </trkpt>
      <trkpt lat="43.45957" lon="3.36739">
        <ele>46.92</ele>
        <time>2023-05-11T07:26:12.489Z</time>
      </trkpt>
      <trkpt lat="43.45967" lon="3.36728">
        <ele>46.43</ele>
        <time>2023-05-11T07:26:22.924Z</time>
      </trkpt>
      <trkpt lat="43.45974" lon="3.36714">
        <ele>46.39</ele>
        <time>2023-05-11T07:26:33.362Z</time>
      </trkpt>
      <trkpt lat="43.45984" lon="3.36702">
        <ele>45.12</ele>
        <time>2023-05-11T07:26:43.744Z</time>
      </trkpt>
      <trkpt lat="43.45997" lon="3.36692">
        <ele>45.29</ele>
        <time>2023-05-11T07:26:54.153Z</time>
      </trkpt>
      <trkpt lat="43.46009" lon="3.36679">
        <ele>45.79</ele>
        <time>2023-05-11T07:27:04.610Z</time>
      </trkpt>
      <trkpt lat="43.46021" lon="3.36669">
        <ele>45.36</ele>
        <time>2023-05-11T07:27:15.066Z</time>
      </trkpt>
      <trkpt lat="43.46031" lon="3.36659">
        <ele>44.63</ele>
        <time>2023-05-11T07:27:25.532Z</time>
      </trkpt>
      <trkpt lat="43.46044" lon="3.3665">
        <ele>44.33</ele>
        <time>2023-05-11T07:27:35.992Z</time>
      </trkpt>
      <trkpt lat="43.46057" lon="3.36643">
        <ele>43.5</ele>
        <time>2023-05-11T07:27:46.445Z</time>
      </trkpt>
      <trkpt lat="43.46068" lon="3.36643">
        <ele>42.82</ele>
        <time>2023-05-11T07:27:56.892Z</time>
      </trkpt>
      <trkpt lat="43.46083" lon="3.36648">
        <ele>41.87</ele>
        <time>2023-05-11T07:28:07.338Z</time>
      </trkpt>
      <trkpt lat="43.46096" lon="3.3666">
        <ele>42.1</ele>
        <time>2023-05-11T07:28:17.784Z</time>
      </trkpt>
      <trkpt lat="43.46105" lon="3.36674">
        <ele>42.91</ele>
        <time>2023-05-11T07:28:28.229Z</time>
      </trkpt>
      <trkpt lat="43.46115" lon="3.3669">
        <ele>41.64</ele>
        <time>2023-05-11T07:28:38.677Z</time>
      </trkpt>
      <trkpt lat="43.46125" lon="3.367">
        <ele>41.18</ele>
        <time>2023-05-11T07:28:49.123Z</time>
      </trkpt>
      <trkpt lat="43.46135" lon="3.36704">
        <ele>40.05</ele>
        <time>2023-05-11T07:28:59.570Z</time>
      </trkpt>
      <trkpt lat="43.46149" lon="3.36709">
        <ele>40.04</ele>
        <time>2023-05-11T07:29:10.017Z</time>
      </trkpt>
      <trkpt lat="43.46164" lon="3.36711">
        <ele>39.54</ele>
        <time>2023-05-11T07:29:20.463Z</time>
      </trkpt>
      <trkpt lat="43.4618" lon="3.36713">
        <ele>42.16</ele>
        <time>2023-05-11T07:29:30.910Z</time>
      </trkpt>
      <trkpt lat="43.46195" lon="3.3671">
        <ele>43.05</ele>
        <time>2023-05-11T07:29:41.375Z</time>
      </trkpt>
      <trkpt lat="43.46208" lon="3.36708">
        <ele>44.16</ele>
        <time>2023-05-11T07:29:51.754Z</time>
      </trkpt>
      <trkpt lat="43.46219" lon="3.36712">
        <ele>43.59</ele>
        <time>2023-05-11T07:30:02.165Z</time>
      </trkpt>
      <trkpt lat="43.46233" lon="3.36715">
        <ele>41.27</ele>
        <time>2023-05-11T07:30:13.122Z</time>
      </trkpt>
      <trkpt lat="43.46247" lon="3.36725">
        <ele>41.55</ele>
        <time>2023-05-11T07:30:23.602Z</time>
      </trkpt>
      <trkpt lat="43.46258" lon="3.36739">
        <ele>42.73</ele>
        <time>2023-05-11T07:30:34.047Z</time>
      </trkpt>
      <trkpt lat="43.46265" lon="3.36754">
        <ele>43.1</ele>
        <time>2023-05-11T07:30:44.054Z</time>
      </trkpt>
      <trkpt lat="43.46267" lon="3.36772">
        <ele>42.07</ele>
        <time>2023-05-11T07:30:54.102Z</time>
      </trkpt>
      <trkpt lat="43.4627" lon="3.36789">
        <ele>42.13</ele>
        <time>2023-05-11T07:31:04.527Z</time>
      </trkpt>
      <trkpt lat="43.46277" lon="3.36804">
        <ele>42.37</ele>
        <time>2023-05-11T07:31:15.034Z</time>
      </trkpt>
      <trkpt lat="43.46283" lon="3.3682">
        <ele>40.8</ele>
        <time>2023-05-11T07:31:25.341Z</time>
      </trkpt>
      <trkpt lat="43.4629" lon="3.36833">
        <ele>39.38</ele>
        <time>2023-05-11T07:31:35.787Z</time>
      </trkpt>
      <trkpt lat="43.463" lon="3.36848">
        <ele>37.25</ele>
        <time>2023-05-11T07:31:46.229Z</time>
      </trkpt>
      <trkpt lat="43.46311" lon="3.36853">
        <ele>37.41</ele>
        <time>2023-05-11T07:31:56.710Z</time>
      </trkpt>
      <trkpt lat="43.4632" lon="3.36845">
        <ele>55.06</ele>
        <time>2023-05-11T07:32:07.166Z</time>
      </trkpt>
      <trkpt lat="43.46323" lon="3.36837">
        <ele>39.86</ele>
        <time>2023-05-11T07:32:17.613Z</time>
      </trkpt>
      <trkpt lat="43.46334" lon="3.36821">
        <ele>38.82</ele>
        <time>2023-05-11T07:32:28.060Z</time>
      </trkpt>
      <trkpt lat="43.46337" lon="3.36807">
        <ele>45.1</ele>
      </trkpt>
      <trkpt lat="43.46338" lon="3.36801">
        <ele>45.2</ele>
      </trkpt>
      <trkpt lat="43.46341" lon="3.36785">
        <ele>45.3</ele>
      </trkpt>
      <trkpt lat="43.46342" lon="3.3678">
        <ele>45.3</ele>
      </trkpt>
      <trkpt lat="43.46343" lon="3.36772">
        <ele>45.5</ele>
      </trkpt>
      <trkpt lat="43.46345" lon="3.36763">
        <ele>45.7</ele>
      </trkpt>
      <trkpt lat="43.46346" lon="3.36757">
        <ele>45.9</ele>
      </trkpt>
      <trkpt lat="43.46347" lon="3.36754">
        <ele>45.9</ele>
      </trkpt>
      <trkpt lat="43.46347" lon="3.36752">
        <ele>46</ele>
      </trkpt>
      <trkpt lat="43.46348" lon="3.36748">
        <ele>46</ele>
      </trkpt>
      <trkpt lat="43.46348" lon="3.36748">
        <ele>46</ele>
      </trkpt>
      <trkpt lat="43.46348" lon="3.36748">
        <ele>46</ele>
      </trkpt>
      <trkpt lat="43.4635" lon="3.36734">
        <ele>46.4</ele>
      </trkpt>
      <trkpt lat="43.46351" lon="3.36729">
        <ele>46.5</ele>
      </trkpt>
      <trkpt lat="43.46357" lon="3.36715">
        <ele>47.1</ele>
      </trkpt>
      <trkpt lat="43.46361" lon="3.367">
        <ele>47.8</ele>
      </trkpt>
      <trkpt lat="43.46362" lon="3.36694">
        <ele>48</ele>
      </trkpt>
      <trkpt lat="43.46364" lon="3.36685">
        <ele>48.2</ele>
      </trkpt>
      <trkpt lat="43.46365" lon="3.36679">
        <ele>48.4</ele>
      </trkpt>
      <trkpt lat="43.4637" lon="3.36656">
        <ele>49</ele>
      </trkpt>
      <trkpt lat="43.46367" lon="3.36653">
        <ele>49.3</ele>
      </trkpt>
      <trkpt lat="43.46368" lon="3.36645">
        <ele>49.6</ele>
      </trkpt>
      <trkpt lat="43.46369" lon="3.36622">
        <ele>50.3</ele>
      </trkpt>
      <trkpt lat="43.4636" lon="3.36601">
        <ele>51.7</ele>
      </trkpt>
      <trkpt lat="43.46363" lon="3.36577">
        <ele>53.2</ele>
      </trkpt>
      <trkpt lat="43.46367" lon="3.36546">
        <ele>54.1</ele>
      </trkpt>
      <trkpt lat="43.46379" lon="3.36525">
        <ele>54.4</ele>
      </trkpt>
      <trkpt lat="43.46385" lon="3.36513">
        <ele>54.2</ele>
      </trkpt>
      <trkpt lat="43.46396" lon="3.3651">
        <ele>53.9</ele>
      </trkpt>
      <trkpt lat="43.46415" lon="3.3651">
        <ele>53.7</ele>
        <time>2023-05-11T07:32:38.516Z</time>
      </trkpt>
      <trkpt lat="43.46408" lon="3.36515">
        <ele>53.6</ele>
      </trkpt>
      <trkpt lat="43.46399" lon="3.36516">
        <ele>53.8</ele>
      </trkpt>
      <trkpt lat="43.46385" lon="3.36521">
        <ele>54.2</ele>
      </trkpt>
      <trkpt lat="43.46378" lon="3.36536">
        <ele>54.1</ele>
      </trkpt>
      <trkpt lat="43.46367" lon="3.36557">
        <ele>53.7</ele>
      </trkpt>
      <trkpt lat="43.46364" lon="3.36581">
        <ele>53</ele>
      </trkpt>
      <trkpt lat="43.46363" lon="3.36605">
        <ele>51.4</ele>
      </trkpt>
      <trkpt lat="43.46367" lon="3.36629">
        <ele>50.1</ele>
      </trkpt>
      <trkpt lat="43.46371" lon="3.36649">
        <ele>49.3</ele>
      </trkpt>
      <trkpt lat="43.46373" lon="3.36661">
        <ele>48.8</ele>
      </trkpt>
      <trkpt lat="43.4637" lon="3.36674">
        <ele>48.4</ele>
      </trkpt>
      <trkpt lat="43.46368" lon="3.36683">
        <ele>48.2</ele>
      </trkpt>
      <trkpt lat="43.46366" lon="3.36689">
        <ele>48</ele>
      </trkpt>
      <trkpt lat="43.46365" lon="3.36694">
        <ele>47.9</ele>
      </trkpt>
      <trkpt lat="43.46363" lon="3.36703">
        <ele>47.6</ele>
      </trkpt>
      <trkpt lat="43.46361" lon="3.36712">
        <ele>47.4</ele>
      </trkpt>
      <trkpt lat="43.46359" lon="3.36723">
        <ele>46.9</ele>
      </trkpt>
      <trkpt lat="43.46357" lon="3.36732">
        <ele>46.5</ele>
      </trkpt>
      <trkpt lat="43.46354" lon="3.36744">
        <ele>46.2</ele>
      </trkpt>
      <trkpt lat="43.46353" lon="3.36752">
        <ele>46</ele>
      </trkpt>
      <trkpt lat="43.4635" lon="3.36765">
        <ele>45.8</ele>
      </trkpt>
      <trkpt lat="43.46349" lon="3.36769">
        <ele>45.7</ele>
      </trkpt>
      <trkpt lat="43.46348" lon="3.36771">
        <ele>45.7</ele>
      </trkpt>
      <trkpt lat="43.46347" lon="3.36776">
        <ele>45.5</ele>
      </trkpt>
      <trkpt lat="43.46345" lon="3.36786">
        <ele>45.4</ele>
      </trkpt>
      <trkpt lat="43.4634" lon="3.36809">
        <ele>45.1</ele>
      </trkpt>
      <trkpt lat="43.46339" lon="3.36814">
        <ele>44.9</ele>
      </trkpt>
      <trkpt lat="43.46338" lon="3.36817">
        <ele>40.6</ele>
        <time>2023-05-11T07:32:48.963Z</time>
      </trkpt>
      <trkpt lat="43.46338" lon="3.36818">
        <ele>56.4</ele>
        <time>2023-05-11T07:33:39.017Z</time>
      </trkpt>
      <trkpt lat="43.46328" lon="3.36832">
        <ele>45.55</ele>
        <time>2023-05-11T07:34:41.568Z</time>
      </trkpt>
      <trkpt lat="43.46325" lon="3.36837">
        <ele>45.11</ele>
        <time>2023-05-11T07:34:51.862Z</time>
      </trkpt>
      <trkpt lat="43.4632" lon="3.36843">
        <ele>45.63</ele>
        <time>2023-05-11T07:35:02.366Z</time>
      </trkpt>
      <trkpt lat="43.46313" lon="3.36859">
        <ele>42.59</ele>
        <time>2023-05-11T07:35:12.823Z</time>
      </trkpt>
      <trkpt lat="43.46313" lon="3.36865">
        <ele>40.31</ele>
        <time>2023-05-11T07:35:23.229Z</time>
      </trkpt>
      <trkpt lat="43.46319" lon="3.36878">
        <ele>39.53</ele>
        <time>2023-05-11T07:35:33.296Z</time>
      </trkpt>
      <trkpt lat="43.46322" lon="3.3688">
        <ele>40.96</ele>
        <time>2023-05-11T07:35:43.723Z</time>
      </trkpt>
      <trkpt lat="43.46324" lon="3.36884">
        <ele>38.26</ele>
        <time>2023-05-11T07:40:43.601Z</time>
      </trkpt>
      <trkpt lat="43.46337" lon="3.36895">
        <ele>38.87</ele>
        <time>2023-05-11T07:40:53.628Z</time>
      </trkpt>
      <trkpt lat="43.46349" lon="3.36905">
        <ele>38.44</ele>
        <time>2023-05-11T07:41:04.075Z</time>
      </trkpt>
      <trkpt lat="43.4636" lon="3.36915">
        <ele>39.08</ele>
        <time>2023-05-11T07:41:14.082Z</time>
      </trkpt>
      <trkpt lat="43.46369" lon="3.36928">
        <ele>40.5</ele>
        <time>2023-05-11T07:41:24.576Z</time>
      </trkpt>
      <trkpt lat="43.46374" lon="3.36944">
        <ele>42.01</ele>
        <time>2023-05-11T07:41:34.996Z</time>
      </trkpt>
      <trkpt lat="43.46378" lon="3.36959">
        <ele>43.19</ele>
        <time>2023-05-11T07:41:45.453Z</time>
      </trkpt>
      <trkpt lat="43.46376" lon="3.36974">
        <ele>44.15</ele>
        <time>2023-05-11T07:41:55.888Z</time>
      </trkpt>
      <trkpt lat="43.4637" lon="3.36989">
        <ele>45.72</ele>
        <time>2023-05-11T07:42:06.346Z</time>
      </trkpt>
      <trkpt lat="43.46364" lon="3.37002">
        <ele>48.11</ele>
        <time>2023-05-11T07:42:16.793Z</time>
      </trkpt>
      <trkpt lat="43.46356" lon="3.37013">
        <ele>48.2</ele>
        <time>2023-05-11T07:42:27.130Z</time>
      </trkpt>
      <trkpt lat="43.46348" lon="3.37024">
        <ele>47.25</ele>
        <time>2023-05-11T07:42:37.579Z</time>
      </trkpt>
      <trkpt lat="43.46344" lon="3.37041">
        <ele>48.21</ele>
        <time>2023-05-11T07:42:47.584Z</time>
      </trkpt>
      <trkpt lat="43.46355" lon="3.3704">
        <ele>49.79</ele>
        <time>2023-05-11T07:42:58.030Z</time>
      </trkpt>
      <trkpt lat="43.46362" lon="3.37033">
        <ele>51.9</ele>
        <time>2023-05-11T07:43:08.488Z</time>
      </trkpt>
      <trkpt lat="43.46372" lon="3.3703">
        <ele>53.46</ele>
        <time>2023-05-11T07:43:18.935Z</time>
      </trkpt>
      <trkpt lat="43.46382" lon="3.37031">
        <ele>56.81</ele>
        <time>2023-05-11T07:43:29.360Z</time>
      </trkpt>
      <trkpt lat="43.46393" lon="3.37031">
        <ele>60.24</ele>
        <time>2023-05-11T07:43:39.829Z</time>
      </trkpt>
      <trkpt lat="43.46405" lon="3.37025">
        <ele>62.45</ele>
        <time>2023-05-11T07:43:50.229Z</time>
      </trkpt>
      <trkpt lat="43.46414" lon="3.37022">
        <ele>63.88</ele>
        <time>2023-05-11T07:44:00.733Z</time>
      </trkpt>
      <trkpt lat="43.46422" lon="3.37018">
        <ele>65.07</ele>
        <time>2023-05-11T07:44:11.156Z</time>
      </trkpt>
      <trkpt lat="43.46435" lon="3.37013">
        <ele>65.05</ele>
        <time>2023-05-11T07:44:21.627Z</time>
      </trkpt>
      <trkpt lat="43.46447" lon="3.37009">
        <ele>64.12</ele>
        <time>2023-05-11T07:44:32.074Z</time>
      </trkpt>
      <trkpt lat="43.46458" lon="3.37006">
        <ele>64.47</ele>
        <time>2023-05-11T07:44:42.573Z</time>
      </trkpt>
      <trkpt lat="43.46471" lon="3.37006">
        <ele>65.06</ele>
        <time>2023-05-11T07:44:52.978Z</time>
      </trkpt>
      <trkpt lat="43.46482" lon="3.37013">
        <ele>61.79</ele>
        <time>2023-05-11T07:45:03.425Z</time>
      </trkpt>
      <trkpt lat="43.46491" lon="3.37024">
        <ele>60.36</ele>
        <time>2023-05-11T07:45:13.871Z</time>
      </trkpt>
      <trkpt lat="43.46504" lon="3.37036">
        <ele>61.78</ele>
        <time>2023-05-11T07:45:24.329Z</time>
      </trkpt>
      <trkpt lat="43.46515" lon="3.37048">
        <ele>63.93</ele>
        <time>2023-05-11T07:45:34.776Z</time>
      </trkpt>
      <trkpt lat="43.46525" lon="3.37062">
        <ele>65.52</ele>
        <time>2023-05-11T07:45:45.229Z</time>
      </trkpt>
      <trkpt lat="43.46533" lon="3.37073">
        <ele>64.33</ele>
        <time>2023-05-11T07:45:55.683Z</time>
      </trkpt>
      <trkpt lat="43.46541" lon="3.37086">
        <ele>62.53</ele>
        <time>2023-05-11T07:46:06.137Z</time>
      </trkpt>
      <trkpt lat="43.46546" lon="3.37103">
        <ele>62.2</ele>
        <time>2023-05-11T07:46:16.605Z</time>
      </trkpt>
      <trkpt lat="43.46553" lon="3.37118">
        <ele>64.85</ele>
        <time>2023-05-11T07:46:27.062Z</time>
      </trkpt>
      <trkpt lat="43.46563" lon="3.37129">
        <ele>66.82</ele>
        <time>2023-05-11T07:46:37.509Z</time>
      </trkpt>
      <trkpt lat="43.46572" lon="3.3714">
        <ele>69.2</ele>
        <time>2023-05-11T07:46:47.956Z</time>
      </trkpt>
      <trkpt lat="43.46581" lon="3.37152">
        <ele>71.66</ele>
        <time>2023-05-11T07:46:58.391Z</time>
      </trkpt>
      <trkpt lat="43.46592" lon="3.37161">
        <ele>72.06</ele>
        <time>2023-05-11T07:47:08.880Z</time>
      </trkpt>
      <trkpt lat="43.46599" lon="3.37174">
        <ele>70.89</ele>
        <time>2023-05-11T07:47:19.337Z</time>
      </trkpt>
      <trkpt lat="43.466" lon="3.37186">
        <ele>70.46</ele>
        <time>2023-05-11T07:47:29.684Z</time>
      </trkpt>
      <trkpt lat="43.46611" lon="3.37199">
        <ele>73.6</ele>
        <time>2023-05-11T07:47:40.131Z</time>
      </trkpt>
      <trkpt lat="43.4662" lon="3.3721">
        <ele>74.15</ele>
        <time>2023-05-11T07:47:50.578Z</time>
      </trkpt>
      <trkpt lat="43.46621" lon="3.37226">
        <ele>75.24</ele>
        <time>2023-05-11T07:48:01.025Z</time>
      </trkpt>
      <trkpt lat="43.46617" lon="3.37241">
        <ele>75.3</ele>
        <time>2023-05-11T07:48:11.362Z</time>
      </trkpt>
      <trkpt lat="43.46612" lon="3.37251">
        <ele>77.89</ele>
        <time>2023-05-11T07:48:21.809Z</time>
      </trkpt>
      <trkpt lat="43.46605" lon="3.37265">
        <ele>79.42</ele>
        <time>2023-05-11T07:48:32.285Z</time>
      </trkpt>
      <trkpt lat="43.46603" lon="3.37282">
        <ele>80</ele>
        <time>2023-05-11T07:48:42.723Z</time>
      </trkpt>
      <trkpt lat="43.46597" lon="3.37295">
        <ele>77.77</ele>
        <time>2023-05-11T07:48:53.170Z</time>
      </trkpt>
      <trkpt lat="43.46589" lon="3.37309">
        <ele>77.88</ele>
        <time>2023-05-11T07:49:03.627Z</time>
      </trkpt>
      <trkpt lat="43.46581" lon="3.37322">
        <ele>76.42</ele>
        <time>2023-05-11T07:49:14.075Z</time>
      </trkpt>
      <trkpt lat="43.46571" lon="3.37331">
        <ele>76.33</ele>
        <time>2023-05-11T07:49:24.542Z</time>
      </trkpt>
      <trkpt lat="43.46562" lon="3.37342">
        <ele>77</ele>
        <time>2023-05-11T07:49:34.879Z</time>
      </trkpt>
      <trkpt lat="43.46549" lon="3.37351">
        <ele>77.17</ele>
        <time>2023-05-11T07:49:45.336Z</time>
      </trkpt>
      <trkpt lat="43.46538" lon="3.37358">
        <ele>76.68</ele>
        <time>2023-05-11T07:49:55.783Z</time>
      </trkpt>
      <trkpt lat="43.46529" lon="3.37372">
        <ele>77.71</ele>
        <time>2023-05-11T07:50:06.229Z</time>
      </trkpt>
      <trkpt lat="43.46516" lon="3.37377">
        <ele>78.7</ele>
        <time>2023-05-11T07:50:16.567Z</time>
      </trkpt>
      <trkpt lat="43.46504" lon="3.37383">
        <ele>77.64</ele>
        <time>2023-05-11T07:50:27.014Z</time>
      </trkpt>
      <trkpt lat="43.46492" lon="3.3739">
        <ele>77.91</ele>
        <time>2023-05-11T07:50:37.993Z</time>
      </trkpt>
      <trkpt lat="43.46485" lon="3.37403">
        <ele>77.11</ele>
        <time>2023-05-11T07:50:48.488Z</time>
      </trkpt>
      <trkpt lat="43.46475" lon="3.37418">
        <ele>77.87</ele>
        <time>2023-05-11T07:50:58.935Z</time>
      </trkpt>
      <trkpt lat="43.46469" lon="3.37434">
        <ele>78.55</ele>
        <time>2023-05-11T07:51:09.391Z</time>
      </trkpt>
      <trkpt lat="43.4646" lon="3.37448">
        <ele>77.53</ele>
        <time>2023-05-11T07:51:19.872Z</time>
      </trkpt>
      <trkpt lat="43.46449" lon="3.37462">
        <ele>76.6</ele>
        <time>2023-05-11T07:51:30.313Z</time>
      </trkpt>
      <trkpt lat="43.46442" lon="3.37476">
        <ele>76.96</ele>
        <time>2023-05-11T07:51:40.753Z</time>
      </trkpt>
      <trkpt lat="43.4643" lon="3.3749">
        <ele>77.03</ele>
        <time>2023-05-11T07:51:51.173Z</time>
      </trkpt>
      <trkpt lat="43.46425" lon="3.37508">
        <ele>76.57</ele>
        <time>2023-05-11T07:52:01.658Z</time>
      </trkpt>
      <trkpt lat="43.46421" lon="3.3752">
        <ele>75.25</ele>
        <time>2023-05-11T07:52:12.149Z</time>
      </trkpt>
      <trkpt lat="43.46415" lon="3.37534">
        <ele>73.1</ele>
        <time>2023-05-11T07:52:22.562Z</time>
      </trkpt>
      <trkpt lat="43.46414" lon="3.37546">
        <ele>72.62</ele>
        <time>2023-05-11T07:52:33.019Z</time>
      </trkpt>
      <trkpt lat="43.46408" lon="3.37552">
        <ele>73.86</ele>
        <time>2023-05-11T07:52:44.027Z</time>
      </trkpt>
      <trkpt lat="43.46404" lon="3.37559">
        <ele>75.5</ele>
        <time>2023-05-11T07:52:54.483Z</time>
      </trkpt>
      <trkpt lat="43.46404" lon="3.37571">
        <ele>75.02</ele>
        <time>2023-05-11T07:53:04.931Z</time>
      </trkpt>
      <trkpt lat="43.46393" lon="3.37575">
        <ele>73.52</ele>
        <time>2023-05-11T07:53:15.900Z</time>
      </trkpt>
      <trkpt lat="43.46384" lon="3.37575">
        <ele>74.62</ele>
        <time>2023-05-11T07:53:26.395Z</time>
      </trkpt>
      <trkpt lat="43.46376" lon="3.37576">
        <ele>76.01</ele>
        <time>2023-05-11T07:53:36.768Z</time>
      </trkpt>
      <trkpt lat="43.46369" lon="3.37584">
        <ele>76.56</ele>
        <time>2023-05-11T07:53:47.200Z</time>
      </trkpt>
      <trkpt lat="43.46359" lon="3.37589">
        <ele>75.57</ele>
        <time>2023-05-11T07:53:57.647Z</time>
      </trkpt>
      <trkpt lat="43.46349" lon="3.37596">
        <ele>73.17</ele>
        <time>2023-05-11T07:54:08.104Z</time>
      </trkpt>
      <trkpt lat="43.46343" lon="3.37598">
        <ele>70.47</ele>
        <time>2023-05-11T07:54:18.551Z</time>
      </trkpt>
      <trkpt lat="43.46329" lon="3.37614">
        <ele>69.66</ele>
        <time>2023-05-11T07:54:28.999Z</time>
      </trkpt>
      <trkpt lat="43.46319" lon="3.3763">
        <ele>71.14</ele>
        <time>2023-05-11T07:54:39.415Z</time>
      </trkpt>
      <trkpt lat="43.4631" lon="3.37641">
        <ele>70.03</ele>
        <time>2023-05-11T07:54:49.793Z</time>
      </trkpt>
      <trkpt lat="43.463" lon="3.37649">
        <ele>69.07</ele>
        <time>2023-05-11T07:55:00.229Z</time>
      </trkpt>
      <trkpt lat="43.4629" lon="3.37658">
        <ele>67.46</ele>
        <time>2023-05-11T07:55:10.698Z</time>
      </trkpt>
      <trkpt lat="43.4628" lon="3.37669">
        <ele>66.73</ele>
        <time>2023-05-11T07:55:21.139Z</time>
      </trkpt>
      <trkpt lat="43.4627" lon="3.3768">
        <ele>66.56</ele>
        <time>2023-05-11T07:55:31.492Z</time>
      </trkpt>
      <trkpt lat="43.46261" lon="3.37686">
        <ele>67.15</ele>
        <time>2023-05-11T07:55:41.970Z</time>
      </trkpt>
      <trkpt lat="43.46254" lon="3.37699">
        <ele>67.02</ele>
        <time>2023-05-11T07:55:52.396Z</time>
      </trkpt>
      <trkpt lat="43.46241" lon="3.37709">
        <ele>66.56</ele>
        <time>2023-05-11T07:56:02.844Z</time>
      </trkpt>
      <trkpt lat="43.46228" lon="3.37718">
        <ele>68.7</ele>
        <time>2023-05-11T07:56:12.861Z</time>
      </trkpt>
      <trkpt lat="43.46217" lon="3.3773">
        <ele>70.18</ele>
        <time>2023-05-11T07:56:23.308Z</time>
      </trkpt>
      <trkpt lat="43.46207" lon="3.37741">
        <ele>67.86</ele>
        <time>2023-05-11T07:56:33.755Z</time>
      </trkpt>
      <trkpt lat="43.46198" lon="3.37752">
        <ele>68.79</ele>
        <time>2023-05-11T07:56:44.113Z</time>
      </trkpt>
      <trkpt lat="43.46188" lon="3.37765">
        <ele>72.04</ele>
        <time>2023-05-11T07:56:54.560Z</time>
      </trkpt>
      <trkpt lat="43.46177" lon="3.37775">
        <ele>73.8</ele>
        <time>2023-05-11T07:57:05.017Z</time>
      </trkpt>
      <trkpt lat="43.46172" lon="3.37784">
        <ele>75.59</ele>
        <time>2023-05-11T07:57:15.474Z</time>
      </trkpt>
      <trkpt lat="43.46162" lon="3.37797">
        <ele>74.51</ele>
        <time>2023-05-11T07:57:25.922Z</time>
      </trkpt>
      <trkpt lat="43.46151" lon="3.37807">
        <ele>74.55</ele>
        <time>2023-05-11T07:57:36.389Z</time>
      </trkpt>
      <trkpt lat="43.46142" lon="3.37814">
        <ele>74.98</ele>
        <time>2023-05-11T07:57:46.845Z</time>
      </trkpt>
      <trkpt lat="43.4613" lon="3.37819">
        <ele>75</ele>
        <time>2023-05-11T07:57:57.303Z</time>
      </trkpt>
      <trkpt lat="43.46119" lon="3.37829">
        <ele>77.56</ele>
        <time>2023-05-11T07:58:07.641Z</time>
      </trkpt>
      <trkpt lat="43.46106" lon="3.37838">
        <ele>79.74</ele>
        <time>2023-05-11T07:58:17.987Z</time>
      </trkpt>
      <trkpt lat="43.46094" lon="3.37847">
        <ele>80.56</ele>
        <time>2023-05-11T07:58:28.417Z</time>
      </trkpt>
      <trkpt lat="43.46081" lon="3.37851">
        <ele>80.54</ele>
        <time>2023-05-11T07:58:38.802Z</time>
      </trkpt>
      <trkpt lat="43.46071" lon="3.37851">
        <ele>81.55</ele>
        <time>2023-05-11T07:58:49.139Z</time>
      </trkpt>
      <trkpt lat="43.4607" lon="3.37843">
        <ele>81.26</ele>
        <time>2023-05-11T07:58:59.416Z</time>
      </trkpt>
      <trkpt lat="43.4607" lon="3.37829">
        <ele>80.7</ele>
        <time>2023-05-11T07:59:09.924Z</time>
      </trkpt>
      <trkpt lat="43.46074" lon="3.37815">
        <ele>78.65</ele>
        <time>2023-05-11T07:59:20.361Z</time>
      </trkpt>
      <trkpt lat="43.46081" lon="3.37801">
        <ele>77.73</ele>
        <time>2023-05-11T07:59:30.819Z</time>
      </trkpt>
      <trkpt lat="43.4608" lon="3.37785">
        <ele>75.63</ele>
        <time>2023-05-11T07:59:41.229Z</time>
      </trkpt>
      <trkpt lat="43.4608" lon="3.37768">
        <ele>73.18</ele>
        <time>2023-05-11T07:59:51.723Z</time>
      </trkpt>
      <trkpt lat="43.4608" lon="3.3776">
        <ele>72.29</ele>
        <time>2023-05-11T08:00:02.171Z</time>
      </trkpt>
      <trkpt lat="43.46079" lon="3.37753">
        <ele>75</ele>
        <time>2023-05-11T08:00:12.188Z</time>
      </trkpt>
      <trkpt lat="43.46088" lon="3.37735">
        <ele>77.72</ele>
        <time>2023-05-11T08:00:22.525Z</time>
      </trkpt>
      <trkpt lat="43.46088" lon="3.37721">
        <ele>77.6</ele>
        <time>2023-05-11T08:00:32.973Z</time>
      </trkpt>
      <trkpt lat="43.4609" lon="3.37703">
        <ele>75.56</ele>
        <time>2023-05-11T08:00:43.430Z</time>
      </trkpt>
      <trkpt lat="43.46092" lon="3.37683">
        <ele>73.56</ele>
        <time>2023-05-11T08:00:53.878Z</time>
      </trkpt>
      <trkpt lat="43.46092" lon="3.37683">
        <ele>72.06</ele>
        <time>2023-05-11T08:01:04.885Z</time>
      </trkpt>
      <trkpt lat="43.46092" lon="3.37682">
        <ele>72.11</ele>
        <time>2023-05-11T08:01:18.741Z</time>
      </trkpt>
      <trkpt lat="43.46092" lon="3.37681">
        <ele>73.5</ele>
        <time>2023-05-11T08:01:36.897Z</time>
      </trkpt>
      <trkpt lat="43.46094" lon="3.37664">
        <ele>71.12</ele>
        <time>2023-05-11T08:01:47.344Z</time>
      </trkpt>
      <trkpt lat="43.46096" lon="3.37641">
        <ele>69.87</ele>
        <time>2023-05-11T08:01:57.815Z</time>
      </trkpt>
      <trkpt lat="43.46098" lon="3.37625">
        <ele>67.35</ele>
        <time>2023-05-11T08:02:08.229Z</time>
      </trkpt>
      <trkpt lat="43.461" lon="3.37613">
        <ele>64.8</ele>
        <time>2023-05-11T08:02:18.586Z</time>
      </trkpt>
      <trkpt lat="43.461" lon="3.37595">
        <ele>64.96</ele>
        <time>2023-05-11T08:02:29.044Z</time>
      </trkpt>
      <trkpt lat="43.46102" lon="3.37573">
        <ele>65.43</ele>
        <time>2023-05-11T08:02:39.533Z</time>
      </trkpt>
      <trkpt lat="43.46104" lon="3.37553">
        <ele>63.96</ele>
        <time>2023-05-11T08:02:49.940Z</time>
      </trkpt>
      <trkpt lat="43.46105" lon="3.37533">
        <ele>67.34</ele>
        <time>2023-05-11T08:03:00.406Z</time>
      </trkpt>
      <trkpt lat="43.46105" lon="3.37517">
        <ele>66.24</ele>
        <time>2023-05-11T08:03:10.853Z</time>
      </trkpt>
      <trkpt lat="43.46101" lon="3.37501">
        <ele>65.23</ele>
        <time>2023-05-11T08:03:20.870Z</time>
      </trkpt>
      <trkpt lat="43.46102" lon="3.37482">
        <ele>64</ele>
        <time>2023-05-11T08:03:31.318Z</time>
      </trkpt>
      <trkpt lat="43.46109" lon="3.3747">
        <ele>63.39</ele>
        <time>2023-05-11T08:03:41.765Z</time>
      </trkpt>
      <trkpt lat="43.46121" lon="3.37466">
        <ele>64.62</ele>
        <time>2023-05-11T08:03:52.229Z</time>
      </trkpt>
      <trkpt lat="43.46137" lon="3.37466">
        <ele>65.88</ele>
        <time>2023-05-11T08:04:02.679Z</time>
      </trkpt>
      <trkpt lat="43.46141" lon="3.37465">
        <ele>67.26</ele>
        <time>2023-05-11T08:04:13.136Z</time>
      </trkpt>
      <trkpt lat="43.46137" lon="3.37462">
        <ele>67.79</ele>
        <time>2023-05-11T08:04:23.594Z</time>
      </trkpt>
      <trkpt lat="43.46136" lon="3.37462">
        <ele>67.8</ele>
        <time>2023-05-11T08:04:34.041Z</time>
      </trkpt>
      <trkpt lat="43.46137" lon="3.37461">
        <ele>67.31</ele>
        <time>2023-05-11T08:04:46.698Z</time>
      </trkpt>
      <trkpt lat="43.46141" lon="3.37449">
        <ele>68.12</ele>
        <time>2023-05-11T08:04:57.695Z</time>
      </trkpt>
      <trkpt lat="43.46148" lon="3.37444">
        <ele>69.31</ele>
        <time>2023-05-11T08:05:08.144Z</time>
      </trkpt>
      <trkpt lat="43.4616" lon="3.37445">
        <ele>69.15</ele>
        <time>2023-05-11T08:05:18.609Z</time>
      </trkpt>
      <trkpt lat="43.46166" lon="3.37441">
        <ele>69.72</ele>
        <time>2023-05-11T08:05:29.021Z</time>
      </trkpt>
      <trkpt lat="43.46177" lon="3.37434">
        <ele>68.98</ele>
        <time>2023-05-11T08:05:39.093Z</time>
      </trkpt>
      <trkpt lat="43.46183" lon="3.37427">
        <ele>69.94</ele>
        <time>2023-05-11T08:05:49.541Z</time>
      </trkpt>
      <trkpt lat="43.46184" lon="3.37416">
        <ele>69.08</ele>
        <time>2023-05-11T08:05:59.987Z</time>
      </trkpt>
      <trkpt lat="43.46183" lon="3.37412">
        <ele>66.71</ele>
        <time>2023-05-11T08:06:09.996Z</time>
      </trkpt>
      <trkpt lat="43.46186" lon="3.37403">
        <ele>66.53</ele>
        <time>2023-05-11T08:06:20.367Z</time>
      </trkpt>
      <trkpt lat="43.46192" lon="3.37391">
        <ele>66.74</ele>
        <time>2023-05-11T08:06:30.790Z</time>
      </trkpt>
      <trkpt lat="43.46199" lon="3.37374">
        <ele>65.31</ele>
        <time>2023-05-11T08:06:41.229Z</time>
      </trkpt>
      <trkpt lat="43.46201" lon="3.37363">
        <ele>63.42</ele>
        <time>2023-05-11T08:06:51.694Z</time>
      </trkpt>
      <trkpt lat="43.46202" lon="3.37363">
        <ele>63.07</ele>
        <time>2023-05-11T08:07:07.091Z</time>
      </trkpt>
      <trkpt lat="43.46207" lon="3.37366">
        <ele>62.81</ele>
        <time>2023-05-11T08:07:17.538Z</time>
      </trkpt>
      <trkpt lat="43.46211" lon="3.37365">
        <ele>64.41</ele>
        <time>2023-05-11T08:07:27.995Z</time>
      </trkpt>
      <trkpt lat="43.46214" lon="3.37355">
        <ele>63.86</ele>
        <time>2023-05-11T08:07:38.461Z</time>
      </trkpt>
      <trkpt lat="43.4621" lon="3.3734">
        <ele>58.95</ele>
        <time>2023-05-11T08:07:48.900Z</time>
      </trkpt>
      <trkpt lat="43.462" lon="3.3733">
        <ele>53.98</ele>
        <time>2023-05-11T08:07:59.229Z</time>
      </trkpt>
      <trkpt lat="43.4619" lon="3.37324">
        <ele>52.74</ele>
        <time>2023-05-11T08:08:09.704Z</time>
      </trkpt>
      <trkpt lat="43.46192" lon="3.37326">
        <ele>53.8</ele>
        <time>2023-05-11T08:08:20.701Z</time>
      </trkpt>
      <trkpt lat="43.4619" lon="3.37326">
        <ele>51.81</ele>
        <time>2023-05-11T08:08:31.148Z</time>
      </trkpt>
      <trkpt lat="43.46177" lon="3.37315">
        <ele>51.48</ele>
        <time>2023-05-11T08:08:41.605Z</time>
      </trkpt>
      <trkpt lat="43.46167" lon="3.37302">
        <ele>52.71</ele>
        <time>2023-05-11T08:08:51.643Z</time>
      </trkpt>
      <trkpt lat="43.46157" lon="3.37293">
        <ele>54.18</ele>
        <time>2023-05-11T08:09:02.100Z</time>
      </trkpt>
      <trkpt lat="43.46153" lon="3.37308">
        <ele>51.96</ele>
        <time>2023-05-11T08:09:12.507Z</time>
      </trkpt>
      <trkpt lat="43.46146" lon="3.37324">
        <ele>50.82</ele>
        <time>2023-05-11T08:09:23.004Z</time>
      </trkpt>
      <trkpt lat="43.46135" lon="3.3734">
        <ele>52.66</ele>
        <time>2023-05-11T08:09:33.451Z</time>
      </trkpt>
      <trkpt lat="43.46125" lon="3.37352">
        <ele>51.92</ele>
        <time>2023-05-11T08:09:43.909Z</time>
      </trkpt>
      <trkpt lat="43.46115" lon="3.37367">
        <ele>54.57</ele>
        <time>2023-05-11T08:09:54.366Z</time>
      </trkpt>
      <trkpt lat="43.46103" lon="3.37374">
        <ele>54.43</ele>
        <time>2023-05-11T08:10:04.843Z</time>
      </trkpt>
      <trkpt lat="43.4609" lon="3.37382">
        <ele>54.53</ele>
        <time>2023-05-11T08:10:15.291Z</time>
      </trkpt>
      <trkpt lat="43.46074" lon="3.37387">
        <ele>55.44</ele>
        <time>2023-05-11T08:10:25.748Z</time>
      </trkpt>
      <trkpt lat="43.46063" lon="3.37387">
        <ele>54.71</ele>
        <time>2023-05-11T08:10:36.195Z</time>
      </trkpt>
      <trkpt lat="43.46049" lon="3.37396">
        <ele>54.65</ele>
        <time>2023-05-11T08:10:46.643Z</time>
      </trkpt>
      <trkpt lat="43.46036" lon="3.37401">
        <ele>54.62</ele>
        <time>2023-05-11T08:10:57.072Z</time>
      </trkpt>
      <trkpt lat="43.46024" lon="3.37407">
        <ele>55.35</ele>
        <time>2023-05-11T08:11:07.557Z</time>
      </trkpt>
      <trkpt lat="43.46011" lon="3.37413">
        <ele>55.69</ele>
        <time>2023-05-11T08:11:17.937Z</time>
      </trkpt>
      <trkpt lat="43.45997" lon="3.3742">
        <ele>56.4</ele>
        <time>2023-05-11T08:11:28.361Z</time>
      </trkpt>
      <trkpt lat="43.45985" lon="3.37423">
        <ele>58.29</ele>
        <time>2023-05-11T08:11:38.839Z</time>
      </trkpt>
      <trkpt lat="43.45971" lon="3.37427">
        <ele>58.24</ele>
        <time>2023-05-11T08:11:49.309Z</time>
      </trkpt>
      <trkpt lat="43.45958" lon="3.37433">
        <ele>57.88</ele>
        <time>2023-05-11T08:11:59.743Z</time>
      </trkpt>
      <trkpt lat="43.45946" lon="3.37436">
        <ele>57.64</ele>
        <time>2023-05-11T08:12:10.190Z</time>
      </trkpt>
      <trkpt lat="43.45933" lon="3.37436">
        <ele>58.01</ele>
        <time>2023-05-11T08:12:20.647Z</time>
      </trkpt>
      <trkpt lat="43.4592" lon="3.37444">
        <ele>58.74</ele>
        <time>2023-05-11T08:12:31.094Z</time>
      </trkpt>
      <trkpt lat="43.45906" lon="3.37446">
        <ele>58.89</ele>
        <time>2023-05-11T08:12:41.541Z</time>
      </trkpt>
      <trkpt lat="43.45894" lon="3.37454">
        <ele>60.55</ele>
        <time>2023-05-11T08:12:51.989Z</time>
      </trkpt>
      <trkpt lat="43.45881" lon="3.37452">
        <ele>57.59</ele>
        <time>2023-05-11T08:13:02.436Z</time>
      </trkpt>
      <trkpt lat="43.45869" lon="3.37451">
        <ele>57.36</ele>
        <time>2023-05-11T08:13:12.812Z</time>
      </trkpt>
      <trkpt lat="43.45856" lon="3.37454">
        <ele>55.77</ele>
        <time>2023-05-11T08:13:23.229Z</time>
      </trkpt>
      <trkpt lat="43.45842" lon="3.37459">
        <ele>57.39</ele>
        <time>2023-05-11T08:13:33.678Z</time>
      </trkpt>
      <trkpt lat="43.45829" lon="3.37464">
        <ele>57.56</ele>
        <time>2023-05-11T08:13:44.135Z</time>
      </trkpt>
      <trkpt lat="43.45816" lon="3.37465">
        <ele>59.98</ele>
        <time>2023-05-11T08:13:54.582Z</time>
      </trkpt>
      <trkpt lat="43.45803" lon="3.37466">
        <ele>62.03</ele>
        <time>2023-05-11T08:14:04.946Z</time>
      </trkpt>
      <trkpt lat="43.45793" lon="3.3746">
        <ele>61.01</ele>
        <time>2023-05-11T08:14:15.333Z</time>
      </trkpt>
      <trkpt lat="43.45778" lon="3.37459">
        <ele>62.02</ele>
        <time>2023-05-11T08:14:25.814Z</time>
      </trkpt>
      <trkpt lat="43.45764" lon="3.3746">
        <ele>64.11</ele>
        <time>2023-05-11T08:14:36.229Z</time>
      </trkpt>
      <trkpt lat="43.4575" lon="3.37462">
        <ele>66.76</ele>
        <time>2023-05-11T08:14:46.719Z</time>
      </trkpt>
      <trkpt lat="43.45737" lon="3.37465">
        <ele>65.6</ele>
        <time>2023-05-11T08:14:56.726Z</time>
      </trkpt>
      <trkpt lat="43.45724" lon="3.37467">
        <ele>64.86</ele>
        <time>2023-05-11T08:15:07.201Z</time>
      </trkpt>
      <trkpt lat="43.45711" lon="3.37471">
        <ele>66.06</ele>
        <time>2023-05-11T08:15:17.760Z</time>
      </trkpt>
      <trkpt lat="43.45698" lon="3.37474">
        <ele>65.68</ele>
        <time>2023-05-11T08:15:28.198Z</time>
      </trkpt>
      <trkpt lat="43.45687" lon="3.37479">
        <ele>66.26</ele>
        <time>2023-05-11T08:15:38.522Z</time>
      </trkpt>
      <trkpt lat="43.45675" lon="3.37485">
        <ele>66.93</ele>
        <time>2023-05-11T08:15:48.553Z</time>
      </trkpt>
      <trkpt lat="43.45662" lon="3.37491">
        <ele>68.36</ele>
        <time>2023-05-11T08:15:59.010Z</time>
      </trkpt>
      <trkpt lat="43.45651" lon="3.37495">
        <ele>69.63</ele>
        <time>2023-05-11T08:16:09.477Z</time>
      </trkpt>
      <trkpt lat="43.45651" lon="3.37491">
        <ele>71.88</ele>
        <time>2023-05-11T08:16:19.945Z</time>
      </trkpt>
      <trkpt lat="43.45651" lon="3.37489">
        <ele>73.82</ele>
        <time>2023-05-11T08:16:33.016Z</time>
      </trkpt>
      <trkpt lat="43.45648" lon="3.37472">
        <ele>73.88</ele>
        <time>2023-05-11T08:16:43.489Z</time>
      </trkpt>
      <trkpt lat="43.45648" lon="3.37452">
        <ele>72.79</ele>
        <time>2023-05-11T08:16:53.936Z</time>
      </trkpt>
      <trkpt lat="43.45647" lon="3.37434">
        <ele>70.06</ele>
        <time>2023-05-11T08:17:04.890Z</time>
      </trkpt>
      <trkpt lat="43.45645" lon="3.37418">
        <ele>69.68</ele>
        <time>2023-05-11T08:17:15.374Z</time>
      </trkpt>
      <trkpt lat="43.45642" lon="3.37403">
        <ele>69.54</ele>
        <time>2023-05-11T08:17:25.838Z</time>
      </trkpt>
      <trkpt lat="43.45637" lon="3.37386">
        <ele>66.97</ele>
        <time>2023-05-11T08:17:36.295Z</time>
      </trkpt>
      <trkpt lat="43.45634" lon="3.37369">
        <ele>66.22</ele>
        <time>2023-05-11T08:17:46.743Z</time>
      </trkpt>
      <trkpt lat="43.45629" lon="3.37354">
        <ele>61.13</ele>
        <time>2023-05-11T08:17:57.199Z</time>
      </trkpt>
      <trkpt lat="43.45621" lon="3.37337">
        <ele>61.55</ele>
        <time>2023-05-11T08:18:07.646Z</time>
      </trkpt>
      <trkpt lat="43.45618" lon="3.37322">
        <ele>61.27</ele>
        <time>2023-05-11T08:18:18.105Z</time>
      </trkpt>
      <trkpt lat="43.45612" lon="3.37306">
        <ele>61.87</ele>
        <time>2023-05-11T08:18:28.592Z</time>
      </trkpt>
      <trkpt lat="43.45607" lon="3.37286">
        <ele>60.73</ele>
        <time>2023-05-11T08:18:39.026Z</time>
      </trkpt>
      <trkpt lat="43.45602" lon="3.37271">
        <ele>62.55</ele>
        <time>2023-05-11T08:18:49.456Z</time>
      </trkpt>
      <trkpt lat="43.45599" lon="3.37254">
        <ele>61.55</ele>
        <time>2023-05-11T08:18:59.905Z</time>
      </trkpt>
      <trkpt lat="43.45595" lon="3.3724">
        <ele>62.44</ele>
        <time>2023-05-11T08:19:10.362Z</time>
      </trkpt>
      <trkpt lat="43.45594" lon="3.37225">
        <ele>60.87</ele>
        <time>2023-05-11T08:19:20.808Z</time>
      </trkpt>
      <trkpt lat="43.45589" lon="3.37216">
        <ele>56.66</ele>
        <time>2023-05-11T08:19:31.817Z</time>
      </trkpt>
      <trkpt lat="43.45588" lon="3.37215">
        <ele>57.21</ele>
        <time>2023-05-11T08:19:45.532Z</time>
      </trkpt>
      <trkpt lat="43.45578" lon="3.37192">
        <ele>58.53</ele>
        <time>2023-05-11T08:19:55.571Z</time>
      </trkpt>
      <trkpt lat="43.4557" lon="3.3718">
        <ele>60.34</ele>
        <time>2023-05-11T08:20:26.421Z</time>
      </trkpt>
      <trkpt lat="43.45559" lon="3.3718">
        <ele>61.04</ele>
        <time>2023-05-11T08:20:36.822Z</time>
      </trkpt>
      <trkpt lat="43.45553" lon="3.37164">
        <ele>58.95</ele>
        <time>2023-05-11T08:20:47.259Z</time>
      </trkpt>
      <trkpt lat="43.45552" lon="3.37153">
        <ele>59.17</ele>
        <time>2023-05-11T08:20:57.736Z</time>
      </trkpt>
      <trkpt lat="43.45549" lon="3.37137">
        <ele>60.15</ele>
        <time>2023-05-11T08:21:08.734Z</time>
      </trkpt>
      <trkpt lat="43.4555" lon="3.37121">
        <ele>61.66</ele>
        <time>2023-05-11T08:21:19.191Z</time>
      </trkpt>
      <trkpt lat="43.45545" lon="3.3711">
        <ele>61.54</ele>
        <time>2023-05-11T08:21:29.648Z</time>
      </trkpt>
      <trkpt lat="43.45533" lon="3.37114">
        <ele>62.65</ele>
        <time>2023-05-11T08:21:40.083Z</time>
      </trkpt>
      <trkpt lat="43.45524" lon="3.37121">
        <ele>62.87</ele>
        <time>2023-05-11T08:21:50.433Z</time>
      </trkpt>
      <trkpt lat="43.45513" lon="3.37133">
        <ele>63.45</ele>
        <time>2023-05-11T08:22:00.880Z</time>
      </trkpt>
      <trkpt lat="43.45504" lon="3.37145">
        <ele>63.71</ele>
        <time>2023-05-11T08:22:11.361Z</time>
      </trkpt>
      <trkpt lat="43.45492" lon="3.3715">
        <ele>64.09</ele>
        <time>2023-05-11T08:22:21.795Z</time>
      </trkpt>
      <trkpt lat="43.4548" lon="3.3716">
        <ele>64.26</ele>
        <time>2023-05-11T08:22:32.229Z</time>
      </trkpt>
      <trkpt lat="43.45468" lon="3.37176">
        <ele>64.86</ele>
        <time>2023-05-11T08:22:42.730Z</time>
      </trkpt>
      <trkpt lat="43.45457" lon="3.37185">
        <ele>64.74</ele>
        <time>2023-05-11T08:22:53.177Z</time>
      </trkpt>
      <trkpt lat="43.45447" lon="3.37195">
        <ele>64.85</ele>
        <time>2023-05-11T08:23:03.194Z</time>
      </trkpt>
      <trkpt lat="43.45434" lon="3.37204">
        <ele>65.46</ele>
        <time>2023-05-11T08:23:13.642Z</time>
      </trkpt>
      <trkpt lat="43.45422" lon="3.37211">
        <ele>66.24</ele>
        <time>2023-05-11T08:23:24.089Z</time>
      </trkpt>
      <trkpt lat="43.45408" lon="3.37212">
        <ele>67.81</ele>
        <time>2023-05-11T08:23:34.489Z</time>
      </trkpt>
      <trkpt lat="43.45394" lon="3.37205">
        <ele>68.54</ele>
        <time>2023-05-11T08:23:44.994Z</time>
      </trkpt>
      <trkpt lat="43.45382" lon="3.37197">
        <ele>69.87</ele>
        <time>2023-05-11T08:23:55.441Z</time>
      </trkpt>
      <trkpt lat="43.4537" lon="3.37193">
        <ele>69.57</ele>
        <time>2023-05-11T08:24:05.909Z</time>
      </trkpt>
      <trkpt lat="43.45362" lon="3.37195">
        <ele>67.24</ele>
        <time>2023-05-11T08:24:16.136Z</time>
      </trkpt>
      <trkpt lat="43.45352" lon="3.37199">
        <ele>67.68</ele>
        <time>2023-05-11T08:24:26.583Z</time>
      </trkpt>
      <trkpt lat="43.45338" lon="3.372">
        <ele>68.75</ele>
        <time>2023-05-11T08:24:37.041Z</time>
      </trkpt>
      <trkpt lat="43.45327" lon="3.37188">
        <ele>67.9</ele>
        <time>2023-05-11T08:24:48.031Z</time>
      </trkpt>
      <trkpt lat="43.45319" lon="3.37178">
        <ele>67.26</ele>
        <time>2023-05-11T08:24:58.506Z</time>
      </trkpt>
      <trkpt lat="43.45308" lon="3.37166">
        <ele>67.72</ele>
        <time>2023-05-11T08:25:08.963Z</time>
      </trkpt>
      <trkpt lat="43.45303" lon="3.37153">
        <ele>68.42</ele>
        <time>2023-05-11T08:25:19.411Z</time>
      </trkpt>
      <trkpt lat="43.45301" lon="3.3715">
        <ele>69.24</ele>
        <time>2023-05-11T08:25:29.858Z</time>
      </trkpt>
      <trkpt lat="43.453" lon="3.37151">
        <ele>69.22</ele>
        <time>2023-05-11T08:25:40.855Z</time>
      </trkpt>
      <trkpt lat="43.45299" lon="3.37151">
        <ele>72.01</ele>
        <time>2023-05-11T08:25:57.037Z</time>
      </trkpt>
      <trkpt lat="43.45298" lon="3.37149">
        <ele>70.97</ele>
        <time>2023-05-11T08:26:18.229Z</time>
      </trkpt>
      <trkpt lat="43.45297" lon="3.37134">
        <ele>72.06</ele>
        <time>2023-05-11T08:26:28.734Z</time>
      </trkpt>
      <trkpt lat="43.45298" lon="3.37119">
        <ele>71.3</ele>
        <time>2023-05-11T08:26:39.741Z</time>
      </trkpt>
      <trkpt lat="43.45296" lon="3.37121">
        <ele>72.46</ele>
        <time>2023-05-11T08:26:50.747Z</time>
      </trkpt>
      <trkpt lat="43.45296" lon="3.37116">
        <ele>73.7</ele>
        <time>2023-05-11T08:27:01.195Z</time>
      </trkpt>
      <trkpt lat="43.45286" lon="3.37103">
        <ele>71.21</ele>
        <time>2023-05-11T08:27:11.643Z</time>
      </trkpt>
      <trkpt lat="43.45279" lon="3.37087">
        <ele>70.76</ele>
        <time>2023-05-11T08:27:22.097Z</time>
      </trkpt>
      <trkpt lat="43.4527" lon="3.37082">
        <ele>70.56</ele>
        <time>2023-05-11T08:27:32.536Z</time>
      </trkpt>
      <trkpt lat="43.45262" lon="3.37083">
        <ele>69.08</ele>
        <time>2023-05-11T08:27:42.985Z</time>
      </trkpt>
      <trkpt lat="43.45256" lon="3.37078">
        <ele>67.94</ele>
        <time>2023-05-11T08:27:52.992Z</time>
      </trkpt>
      <trkpt lat="43.4525" lon="3.37071">
        <ele>68.41</ele>
        <time>2023-05-11T08:28:03.431Z</time>
      </trkpt>
      <trkpt lat="43.45248" lon="3.37066">
        <ele>70.9</ele>
        <time>2023-05-11T08:28:13.887Z</time>
      </trkpt>
      <trkpt lat="43.45248" lon="3.37051">
        <ele>72.65</ele>
        <time>2023-05-11T08:28:24.225Z</time>
      </trkpt>
      <trkpt lat="43.45244" lon="3.37036">
        <ele>71.17</ele>
        <time>2023-05-11T08:28:34.682Z</time>
      </trkpt>
      <trkpt lat="43.4524" lon="3.37029">
        <ele>71.82</ele>
        <time>2023-05-11T08:28:45.689Z</time>
      </trkpt>
      <trkpt lat="43.45239" lon="3.37028">
        <ele>73.32</ele>
        <time>2023-05-11T08:28:56.675Z</time>
      </trkpt>
      <trkpt lat="43.4524" lon="3.37027">
        <ele>73.76</ele>
        <time>2023-05-11T08:29:10.453Z</time>
      </trkpt>
      <trkpt lat="43.45242" lon="3.37024">
        <ele>73.11</ele>
        <time>2023-05-11T08:29:20.901Z</time>
      </trkpt>
      <trkpt lat="43.45254" lon="3.37014">
        <ele>73.61</ele>
        <time>2023-05-11T08:29:55.021Z</time>
      </trkpt>
      <trkpt lat="43.45265" lon="3.3701">
        <ele>72.01</ele>
        <time>2023-05-11T08:30:05.478Z</time>
      </trkpt>
      <trkpt lat="43.45275" lon="3.37008">
        <ele>70.84</ele>
        <time>2023-05-11T08:30:15.937Z</time>
      </trkpt>
      <trkpt lat="43.45286" lon="3.36995">
        <ele>71.1</ele>
        <time>2023-05-11T08:30:26.394Z</time>
      </trkpt>
      <trkpt lat="43.45297" lon="3.36985">
        <ele>68.83</ele>
        <time>2023-05-11T08:30:36.882Z</time>
      </trkpt>
      <trkpt lat="43.45306" lon="3.36973">
        <ele>67.53</ele>
        <time>2023-05-11T08:30:47.298Z</time>
      </trkpt>
      <trkpt lat="43.45316" lon="3.3696">
        <ele>65.43</ele>
        <time>2023-05-11T08:30:57.709Z</time>
      </trkpt>
      <trkpt lat="43.45323" lon="3.36947">
        <ele>63.1</ele>
        <time>2023-05-11T08:31:08.094Z</time>
      </trkpt>
      <trkpt lat="43.45333" lon="3.36932">
        <ele>60.78</ele>
        <time>2023-05-11T08:31:18.571Z</time>
      </trkpt>
      <trkpt lat="43.45333" lon="3.36919">
        <ele>61.26</ele>
        <time>2023-05-11T08:31:28.589Z</time>
      </trkpt>
      <trkpt lat="43.45324" lon="3.36908">
        <ele>63.27</ele>
        <time>2023-05-11T08:31:39.035Z</time>
      </trkpt>
      <trkpt lat="43.45323" lon="3.36895">
        <ele>65.9</ele>
        <time>2023-05-11T08:31:49.483Z</time>
      </trkpt>
      <trkpt lat="43.45313" lon="3.3689">
        <ele>65.98</ele>
        <time>2023-05-11T08:31:59.941Z</time>
      </trkpt>
      <trkpt lat="43.453" lon="3.36888">
        <ele>67.73</ele>
        <time>2023-05-11T08:32:10.388Z</time>
      </trkpt>
      <trkpt lat="43.4529" lon="3.36885">
        <ele>70.99</ele>
        <time>2023-05-11T08:32:20.835Z</time>
      </trkpt>
      <trkpt lat="43.45281" lon="3.36878">
        <ele>72.23</ele>
        <time>2023-05-11T08:32:31.288Z</time>
      </trkpt>
      <trkpt lat="43.45271" lon="3.36871">
        <ele>74.12</ele>
        <time>2023-05-11T08:32:41.760Z</time>
      </trkpt>
      <trkpt lat="43.45267" lon="3.36872">
        <ele>75.43</ele>
        <time>2023-05-11T08:32:52.164Z</time>
      </trkpt>
      <trkpt lat="43.45262" lon="3.36872">
        <ele>77.53</ele>
        <time>2023-05-11T08:33:02.637Z</time>
      </trkpt>
      <trkpt lat="43.45256" lon="3.3686">
        <ele>77.52</ele>
        <time>2023-05-11T08:33:12.672Z</time>
      </trkpt>
      <trkpt lat="43.45249" lon="3.36849">
        <ele>76.88</ele>
        <time>2023-05-11T08:33:23.130Z</time>
      </trkpt>
      <trkpt lat="43.45243" lon="3.36842">
        <ele>78.71</ele>
        <time>2023-05-11T08:33:33.577Z</time>
      </trkpt>
      <trkpt lat="43.45236" lon="3.36833">
        <ele>78.58</ele>
        <time>2023-05-11T08:33:43.991Z</time>
      </trkpt>
      <trkpt lat="43.45228" lon="3.3682">
        <ele>78.79</ele>
        <time>2023-05-11T08:33:54.492Z</time>
      </trkpt>
      <trkpt lat="43.45216" lon="3.36811">
        <ele>77.82</ele>
        <time>2023-05-11T08:34:04.509Z</time>
      </trkpt>
      <trkpt lat="43.45207" lon="3.36803">
        <ele>78.13</ele>
        <time>2023-05-11T08:34:14.967Z</time>
      </trkpt>
      <trkpt lat="43.45201" lon="3.36798">
        <ele>76.73</ele>
        <time>2023-05-11T08:34:25.413Z</time>
      </trkpt>
      <trkpt lat="43.45193" lon="3.36791">
        <ele>73.34</ele>
        <time>2023-05-11T08:34:35.861Z</time>
      </trkpt>
      <trkpt lat="43.45193" lon="3.36787">
        <ele>74.5</ele>
        <time>2023-05-11T08:34:46.858Z</time>
      </trkpt>
      <trkpt lat="43.45192" lon="3.36787">
        <ele>74.52</ele>
        <time>2023-05-11T08:34:57.306Z</time>
      </trkpt>
      <trkpt lat="43.45191" lon="3.36783">
        <ele>77.92</ele>
        <time>2023-05-11T08:35:23.038Z</time>
      </trkpt>
      <trkpt lat="43.4519" lon="3.36777">
        <ele>82.89</ele>
        <time>2023-05-11T08:35:33.057Z</time>
      </trkpt>
      <trkpt lat="43.45189" lon="3.36775">
        <ele>82.92</ele>
        <time>2023-05-11T08:35:43.514Z</time>
      </trkpt>
      <trkpt lat="43.45188" lon="3.36776">
        <ele>80.77</ele>
        <time>2023-05-11T08:36:00.020Z</time>
      </trkpt>
      <trkpt lat="43.45187" lon="3.36781">
        <ele>79.02</ele>
        <time>2023-05-11T08:36:10.477Z</time>
      </trkpt>
      <trkpt lat="43.45183" lon="3.36777">
        <ele>76.83</ele>
        <time>2023-05-11T08:36:52.826Z</time>
      </trkpt>
      <trkpt lat="43.45175" lon="3.36771">
        <ele>76.14</ele>
        <time>2023-05-11T08:37:02.853Z</time>
      </trkpt>
      <trkpt lat="43.45168" lon="3.36765">
        <ele>75.71</ele>
        <time>2023-05-11T08:37:13.311Z</time>
      </trkpt>
      <trkpt lat="43.45164" lon="3.36761">
        <ele>74.09</ele>
        <time>2023-05-11T08:37:23.768Z</time>
      </trkpt>
      <trkpt lat="43.45165" lon="3.36747">
        <ele>71.22</ele>
        <time>2023-05-11T08:37:34.229Z</time>
      </trkpt>
      <trkpt lat="43.45171" lon="3.36737">
        <ele>69.55</ele>
        <time>2023-05-11T08:37:44.664Z</time>
      </trkpt>
      <trkpt lat="43.4518" lon="3.36726">
        <ele>69.39</ele>
        <time>2023-05-11T08:37:55.150Z</time>
      </trkpt>
      <trkpt lat="43.45191" lon="3.36718">
        <ele>69.02</ele>
        <time>2023-05-11T08:38:05.607Z</time>
      </trkpt>
      <trkpt lat="43.45201" lon="3.36714">
        <ele>70.19</ele>
        <time>2023-05-11T08:38:16.055Z</time>
      </trkpt>
      <trkpt lat="43.45211" lon="3.3671">
        <ele>72.3</ele>
        <time>2023-05-11T08:38:26.512Z</time>
      </trkpt>
      <trkpt lat="43.45221" lon="3.36705">
        <ele>72.99</ele>
        <time>2023-05-11T08:38:36.959Z</time>
      </trkpt>
      <trkpt lat="43.45231" lon="3.36702">
        <ele>74.18</ele>
        <time>2023-05-11T08:38:47.406Z</time>
      </trkpt>
      <trkpt lat="43.4524" lon="3.36708">
        <ele>72.33</ele>
        <time>2023-05-11T08:38:57.850Z</time>
      </trkpt>
      <trkpt lat="43.45249" lon="3.36706">
        <ele>75.63</ele>
        <time>2023-05-11T08:39:08.860Z</time>
      </trkpt>
      <trkpt lat="43.45251" lon="3.36705">
        <ele>76.42</ele>
        <time>2023-05-11T08:39:19.308Z</time>
      </trkpt>
      <trkpt lat="43.45258" lon="3.36704">
        <ele>75.56</ele>
        <time>2023-05-11T08:39:29.756Z</time>
      </trkpt>
      <trkpt lat="43.45267" lon="3.36706">
        <ele>73.19</ele>
        <time>2023-05-11T08:39:40.195Z</time>
      </trkpt>
      <trkpt lat="43.45276" lon="3.36702">
        <ele>72.62</ele>
        <time>2023-05-11T08:39:50.660Z</time>
      </trkpt>
      <trkpt lat="43.4528" lon="3.36694">
        <ele>71.99</ele>
        <time>2023-05-11T08:40:01.128Z</time>
      </trkpt>
      <trkpt lat="43.45278" lon="3.3669">
        <ele>71.32</ele>
        <time>2023-05-11T08:40:11.475Z</time>
      </trkpt>
      <trkpt lat="43.45279" lon="3.36678">
        <ele>68.08</ele>
        <time>2023-05-11T08:40:21.923Z</time>
      </trkpt>
      <trkpt lat="43.45278" lon="3.36665">
        <ele>65.18</ele>
        <time>2023-05-11T08:40:32.328Z</time>
      </trkpt>
      <trkpt lat="43.45283" lon="3.36654">
        <ele>64.58</ele>
        <time>2023-05-11T08:40:42.816Z</time>
      </trkpt>
      <trkpt lat="43.45289" lon="3.3665">
        <ele>64.03</ele>
        <time>2023-05-11T08:40:53.229Z</time>
      </trkpt>
      <trkpt lat="43.45297" lon="3.36645">
        <ele>63.62</ele>
        <time>2023-05-11T08:41:03.722Z</time>
      </trkpt>
      <trkpt lat="43.45307" lon="3.36637">
        <ele>64.5</ele>
        <time>2023-05-11T08:41:14.159Z</time>
      </trkpt>
      <trkpt lat="43.45318" lon="3.36629">
        <ele>64.76</ele>
        <time>2023-05-11T08:41:24.617Z</time>
      </trkpt>
      <trkpt lat="43.45329" lon="3.36627">
        <ele>63.97</ele>
        <time>2023-05-11T08:41:35.073Z</time>
      </trkpt>
      <trkpt lat="43.4533" lon="3.36612">
        <ele>64.04</ele>
        <time>2023-05-11T08:41:45.520Z</time>
      </trkpt>
      <trkpt lat="43.45331" lon="3.36597">
        <ele>61.76</ele>
        <time>2023-05-11T08:41:55.861Z</time>
      </trkpt>
      <trkpt lat="43.45331" lon="3.36583">
        <ele>60.08</ele>
        <time>2023-05-11T08:42:06.324Z</time>
      </trkpt>
      <trkpt lat="43.45334" lon="3.36564">
        <ele>59.6</ele>
        <time>2023-05-11T08:42:16.774Z</time>
      </trkpt>
      <trkpt lat="43.45343" lon="3.36548">
        <ele>59.94</ele>
        <time>2023-05-11T08:42:27.229Z</time>
      </trkpt>
      <trkpt lat="43.45353" lon="3.36541">
        <ele>59.98</ele>
        <time>2023-05-11T08:42:37.689Z</time>
      </trkpt>
      <trkpt lat="43.45366" lon="3.36535">
        <ele>58.82</ele>
        <time>2023-05-11T08:42:48.137Z</time>
      </trkpt>
      <trkpt lat="43.45364" lon="3.36521">
        <ele>59.44</ele>
        <time>2023-05-11T08:42:58.584Z</time>
      </trkpt>
      <trkpt lat="43.45351" lon="3.36523">
        <ele>60.81</ele>
        <time>2023-05-11T08:43:08.908Z</time>
      </trkpt>
      <trkpt lat="43.45338" lon="3.36525">
        <ele>59.75</ele>
        <time>2023-05-11T08:43:19.388Z</time>
      </trkpt>
      <trkpt lat="43.45329" lon="3.36533">
        <ele>59.71</ele>
        <time>2023-05-11T08:43:29.820Z</time>
      </trkpt>
      <trkpt lat="43.45321" lon="3.36548">
        <ele>58.47</ele>
        <time>2023-05-11T08:43:40.293Z</time>
      </trkpt>
      <trkpt lat="43.45311" lon="3.36562">
        <ele>59.68</ele>
        <time>2023-05-11T08:43:50.749Z</time>
      </trkpt>
      <trkpt lat="43.45302" lon="3.36571">
        <ele>59.18</ele>
        <time>2023-05-11T08:44:01.198Z</time>
      </trkpt>
      <trkpt lat="43.4529" lon="3.36579">
        <ele>59.55</ele>
        <time>2023-05-11T08:44:11.645Z</time>
      </trkpt>
      <trkpt lat="43.45286" lon="3.36584">
        <ele>60.89</ele>
        <time>2023-05-11T08:44:22.092Z</time>
      </trkpt>
      <trkpt lat="43.45284" lon="3.36586">
        <ele>61.67</ele>
        <time>2023-05-11T08:44:33.089Z</time>
      </trkpt>
      <trkpt lat="43.45283" lon="3.36586">
        <ele>61.72</ele>
        <time>2023-05-11T08:44:44.607Z</time>
      </trkpt>
      <trkpt lat="43.4528" lon="3.36589">
        <ele>62.79</ele>
        <time>2023-05-11T08:44:55.104Z</time>
      </trkpt>
      <trkpt lat="43.45268" lon="3.36605">
        <ele>62.66</ele>
        <time>2023-05-11T08:45:05.561Z</time>
      </trkpt>
      <trkpt lat="43.45258" lon="3.36611">
        <ele>62.82</ele>
        <time>2023-05-11T08:45:16.008Z</time>
      </trkpt>
      <trkpt lat="43.45247" lon="3.36609">
        <ele>62.24</ele>
        <time>2023-05-11T08:45:26.456Z</time>
      </trkpt>
      <trkpt lat="43.45234" lon="3.36601">
        <ele>60.91</ele>
        <time>2023-05-11T08:45:36.803Z</time>
      </trkpt>
      <trkpt lat="43.45223" lon="3.36596">
        <ele>61.88</ele>
        <time>2023-05-11T08:45:47.229Z</time>
      </trkpt>
      <trkpt lat="43.45212" lon="3.36598">
        <ele>63.17</ele>
        <time>2023-05-11T08:45:57.707Z</time>
      </trkpt>
      <trkpt lat="43.45201" lon="3.36606">
        <ele>61.73</ele>
        <time>2023-05-11T08:46:08.165Z</time>
      </trkpt>
      <trkpt lat="43.45188" lon="3.36616">
        <ele>62.49</ele>
        <time>2023-05-11T08:46:18.632Z</time>
      </trkpt>
      <trkpt lat="43.45175" lon="3.36622">
        <ele>61.87</ele>
        <time>2023-05-11T08:46:29.097Z</time>
      </trkpt>
      <trkpt lat="43.45163" lon="3.36621">
        <ele>58.98</ele>
        <time>2023-05-11T08:46:39.527Z</time>
      </trkpt>
      <trkpt lat="43.45153" lon="3.36625">
        <ele>55.49</ele>
        <time>2023-05-11T08:46:49.544Z</time>
      </trkpt>
      <trkpt lat="43.45139" lon="3.36632">
        <ele>55.18</ele>
        <time>2023-05-11T08:47:00.003Z</time>
      </trkpt>
      <trkpt lat="43.45122" lon="3.36633">
        <ele>56.26</ele>
        <time>2023-05-11T08:47:10.329Z</time>
      </trkpt>
      <trkpt lat="43.45108" lon="3.36635">
        <ele>57.63</ele>
        <time>2023-05-11T08:47:20.776Z</time>
      </trkpt>
      <trkpt lat="43.45095" lon="3.36639">
        <ele>59.52</ele>
        <time>2023-05-11T08:47:31.224Z</time>
      </trkpt>
      <trkpt lat="43.45082" lon="3.36641">
        <ele>60.34</ele>
        <time>2023-05-11T08:47:41.670Z</time>
      </trkpt>
      <trkpt lat="43.45069" lon="3.36642">
        <ele>61.6</ele>
        <time>2023-05-11T08:47:52.128Z</time>
      </trkpt>
      <trkpt lat="43.45056" lon="3.36637">
        <ele>60.87</ele>
        <time>2023-05-11T08:48:02.586Z</time>
      </trkpt>
      <trkpt lat="43.45045" lon="3.36634">
        <ele>60.23</ele>
        <time>2023-05-11T08:48:13.033Z</time>
      </trkpt>
      <trkpt lat="43.45035" lon="3.36634">
        <ele>58.63</ele>
        <time>2023-05-11T08:48:23.480Z</time>
      </trkpt>
      <trkpt lat="43.45022" lon="3.36636">
        <ele>59.49</ele>
        <time>2023-05-11T08:48:33.918Z</time>
      </trkpt>
      <trkpt lat="43.45005" lon="3.36636">
        <ele>63.46</ele>
        <time>2023-05-11T08:48:44.365Z</time>
      </trkpt>
      <trkpt lat="43.44992" lon="3.36637">
        <ele>65.3</ele>
        <time>2023-05-11T08:48:54.702Z</time>
      </trkpt>
      <trkpt lat="43.44981" lon="3.36644">
        <ele>67.63</ele>
        <time>2023-05-11T08:49:05.150Z</time>
      </trkpt>
      <trkpt lat="43.44975" lon="3.36654">
        <ele>67.31</ele>
        <time>2023-05-11T08:49:15.597Z</time>
      </trkpt>
      <trkpt lat="43.44967" lon="3.36664">
        <ele>66.78</ele>
        <time>2023-05-11T08:49:25.935Z</time>
      </trkpt>
      <trkpt lat="43.4496" lon="3.36653">
        <ele>67.41</ele>
        <time>2023-05-11T08:49:36.401Z</time>
      </trkpt>
      <trkpt lat="43.44963" lon="3.36636">
        <ele>69.09</ele>
        <time>2023-05-11T08:49:46.756Z</time>
      </trkpt>
      <trkpt lat="43.44966" lon="3.36617">
        <ele>67.4</ele>
        <time>2023-05-11T08:49:57.196Z</time>
      </trkpt>
      <trkpt lat="43.44958" lon="3.36604">
        <ele>64.81</ele>
        <time>2023-05-11T08:50:07.643Z</time>
      </trkpt>
      <trkpt lat="43.44947" lon="3.36595">
        <ele>63.46</ele>
        <time>2023-05-11T08:50:18.111Z</time>
      </trkpt>
      <trkpt lat="43.44941" lon="3.36581">
        <ele>63.65</ele>
        <time>2023-05-11T08:50:28.558Z</time>
      </trkpt>
      <trkpt lat="43.44936" lon="3.36565">
        <ele>63.45</ele>
        <time>2023-05-11T08:50:38.992Z</time>
      </trkpt>
      <trkpt lat="43.44928" lon="3.36551">
        <ele>63.71</ele>
        <time>2023-05-11T08:50:49.452Z</time>
      </trkpt>
      <trkpt lat="43.44916" lon="3.36544">
        <ele>62.76</ele>
        <time>2023-05-11T08:50:59.460Z</time>
      </trkpt>
      <trkpt lat="43.44903" lon="3.36537">
        <ele>61.16</ele>
        <time>2023-05-11T08:51:09.906Z</time>
      </trkpt>
      <trkpt lat="43.44893" lon="3.36533">
        <ele>61.06</ele>
        <time>2023-05-11T08:51:20.354Z</time>
      </trkpt>
      <trkpt lat="43.44887" lon="3.3652">
        <ele>62.85</ele>
        <time>2023-05-11T08:51:30.802Z</time>
      </trkpt>
      <trkpt lat="43.44877" lon="3.36512">
        <ele>64.36</ele>
        <time>2023-05-11T08:51:41.200Z</time>
      </trkpt>
      <trkpt lat="43.44868" lon="3.36518">
        <ele>66.14</ele>
        <time>2023-05-11T08:51:51.696Z</time>
      </trkpt>
      <trkpt lat="43.44861" lon="3.36532">
        <ele>68.94</ele>
        <time>2023-05-11T08:52:02.033Z</time>
      </trkpt>
      <trkpt lat="43.44859" lon="3.36545">
        <ele>70.67</ele>
        <time>2023-05-11T08:52:12.418Z</time>
      </trkpt>
      <trkpt lat="43.44864" lon="3.36561">
        <ele>69.19</ele>
        <time>2023-05-11T08:52:22.718Z</time>
      </trkpt>
      <trkpt lat="43.44869" lon="3.36576">
        <ele>69.29</ele>
        <time>2023-05-11T08:52:33.165Z</time>
      </trkpt>
      <trkpt lat="43.44866" lon="3.36586">
        <ele>70.97</ele>
        <time>2023-05-11T08:52:43.623Z</time>
      </trkpt>
      <trkpt lat="43.4486" lon="3.36601">
        <ele>73.53</ele>
        <time>2023-05-11T08:52:53.924Z</time>
      </trkpt>
      <trkpt lat="43.44859" lon="3.36615">
        <ele>74.95</ele>
        <time>2023-05-11T08:53:04.417Z</time>
      </trkpt>
      <trkpt lat="43.44855" lon="3.36622">
        <ele>76.69</ele>
        <time>2023-05-11T08:53:14.819Z</time>
      </trkpt>
      <trkpt lat="43.44847" lon="3.3663">
        <ele>77.13</ele>
        <time>2023-05-11T08:53:25.321Z</time>
      </trkpt>
      <trkpt lat="43.4484" lon="3.36636">
        <ele>77.79</ele>
        <time>2023-05-11T08:53:35.669Z</time>
      </trkpt>
      <trkpt lat="43.44831" lon="3.36642">
        <ele>79.19</ele>
        <time>2023-05-11T08:53:46.116Z</time>
      </trkpt>
      <trkpt lat="43.44823" lon="3.36651">
        <ele>79.17</ele>
        <time>2023-05-11T08:53:56.595Z</time>
      </trkpt>
      <trkpt lat="43.44813" lon="3.3666">
        <ele>81.19</ele>
        <time>2023-05-11T08:54:07.130Z</time>
      </trkpt>
      <trkpt lat="43.44807" lon="3.3667">
        <ele>83.28</ele>
        <time>2023-05-11T08:54:17.578Z</time>
      </trkpt>
      <trkpt lat="43.44799" lon="3.36685">
        <ele>85.61</ele>
        <time>2023-05-11T08:54:28.035Z</time>
      </trkpt>
      <trkpt lat="43.44793" lon="3.36704">
        <ele>88.57</ele>
        <time>2023-05-11T08:54:38.493Z</time>
      </trkpt>
      <trkpt lat="43.44794" lon="3.36717">
        <ele>89.15</ele>
        <time>2023-05-11T08:54:48.940Z</time>
      </trkpt>
      <trkpt lat="43.4479" lon="3.36709">
        <ele>84.38</ele>
        <time>2023-05-11T08:55:30.596Z</time>
      </trkpt>
      <trkpt lat="43.44786" lon="3.36698">
        <ele>81.69</ele>
        <time>2023-05-11T08:55:41.123Z</time>
      </trkpt>
      <trkpt lat="43.44786" lon="3.36691">
        <ele>84.62</ele>
        <time>2023-05-11T09:02:19.229Z</time>
      </trkpt>
      <trkpt lat="43.44788" lon="3.36676">
        <ele>82.94</ele>
        <time>2023-05-11T09:02:29.722Z</time>
      </trkpt>
      <trkpt lat="43.44786" lon="3.36659">
        <ele>81.45</ele>
        <time>2023-05-11T09:02:40.169Z</time>
      </trkpt>
      <trkpt lat="43.44785" lon="3.36643">
        <ele>81.21</ele>
        <time>2023-05-11T09:02:50.507Z</time>
      </trkpt>
      <trkpt lat="43.44773" lon="3.36633">
        <ele>82.96</ele>
        <time>2023-05-11T09:03:00.953Z</time>
      </trkpt>
      <trkpt lat="43.44768" lon="3.36623">
        <ele>82.29</ele>
        <time>2023-05-11T09:03:11.310Z</time>
      </trkpt>
      <trkpt lat="43.44761" lon="3.36619">
        <ele>81.12</ele>
        <time>2023-05-11T09:03:21.789Z</time>
      </trkpt>
      <trkpt lat="43.44754" lon="3.36631">
        <ele>82.7</ele>
        <time>2023-05-11T09:03:32.206Z</time>
      </trkpt>
      <trkpt lat="43.4475" lon="3.36648">
        <ele>85.08</ele>
        <time>2023-05-11T09:03:42.654Z</time>
      </trkpt>
      <trkpt lat="43.44742" lon="3.36651">
        <ele>85.85</ele>
        <time>2023-05-11T09:03:53.101Z</time>
      </trkpt>
      <trkpt lat="43.44734" lon="3.36644">
        <ele>83.1</ele>
        <time>2023-05-11T09:04:03.548Z</time>
      </trkpt>
      <trkpt lat="43.4473" lon="3.36638">
        <ele>83.2</ele>
        <time>2023-05-11T09:04:14.105Z</time>
      </trkpt>
      <trkpt lat="43.44719" lon="3.36636">
        <ele>82.15</ele>
        <time>2023-05-11T09:04:24.333Z</time>
      </trkpt>
      <trkpt lat="43.44714" lon="3.36633">
        <ele>81.08</ele>
        <time>2023-05-11T09:04:34.779Z</time>
      </trkpt>
      <trkpt lat="43.44709" lon="3.36639">
        <ele>79.05</ele>
        <time>2023-05-11T09:04:45.798Z</time>
      </trkpt>
      <trkpt lat="43.44705" lon="3.3664">
        <ele>78.03</ele>
        <time>2023-05-11T09:04:56.229Z</time>
      </trkpt>
      <trkpt lat="43.44697" lon="3.36639">
        <ele>77.91</ele>
        <time>2023-05-11T09:05:06.709Z</time>
      </trkpt>
      <trkpt lat="43.44686" lon="3.36644">
        <ele>78.77</ele>
        <time>2023-05-11T09:05:17.160Z</time>
      </trkpt>
      <trkpt lat="43.44677" lon="3.36634">
        <ele>75.63</ele>
        <time>2023-05-11T09:05:27.607Z</time>
      </trkpt>
      <trkpt lat="43.4467" lon="3.36623">
        <ele>71.36</ele>
        <time>2023-05-11T09:05:38.055Z</time>
      </trkpt>
      <trkpt lat="43.44664" lon="3.36614">
        <ele>67.97</ele>
        <time>2023-05-11T09:05:48.545Z</time>
      </trkpt>
      <trkpt lat="43.44654" lon="3.36604">
        <ele>71.02</ele>
        <time>2023-05-11T09:05:58.949Z</time>
      </trkpt>
      <trkpt lat="43.4465" lon="3.36588">
        <ele>71.76</ele>
        <time>2023-05-11T09:06:09.397Z</time>
      </trkpt>
      <trkpt lat="43.44639" lon="3.36588">
        <ele>75.5</ele>
        <time>2023-05-11T09:06:19.905Z</time>
      </trkpt>
      <trkpt lat="43.44632" lon="3.36592">
        <ele>78.58</ele>
        <time>2023-05-11T09:06:30.312Z</time>
      </trkpt>
      <trkpt lat="43.44623" lon="3.36594">
        <ele>79.72</ele>
        <time>2023-05-11T09:06:40.769Z</time>
      </trkpt>
      <trkpt lat="43.44613" lon="3.36594">
        <ele>80.43</ele>
        <time>2023-05-11T09:06:51.240Z</time>
      </trkpt>
      <trkpt lat="43.44604" lon="3.36598">
        <ele>80.87</ele>
        <time>2023-05-11T09:07:01.684Z</time>
      </trkpt>
      <trkpt lat="43.44594" lon="3.36605">
        <ele>82.06</ele>
        <time>2023-05-11T09:07:12.681Z</time>
      </trkpt>
      <trkpt lat="43.44582" lon="3.36613">
        <ele>83.57</ele>
        <time>2023-05-11T09:07:23.127Z</time>
      </trkpt>
      <trkpt lat="43.44574" lon="3.36618">
        <ele>82.76</ele>
        <time>2023-05-11T09:07:33.576Z</time>
      </trkpt>
      <trkpt lat="43.44564" lon="3.36622">
        <ele>83.44</ele>
        <time>2023-05-11T09:07:44.034Z</time>
      </trkpt>
      <trkpt lat="43.44553" lon="3.36636">
        <ele>86</ele>
        <time>2023-05-11T09:07:54.491Z</time>
      </trkpt>
      <trkpt lat="43.4455" lon="3.36653">
        <ele>86.87</ele>
        <time>2023-05-11T09:08:04.938Z</time>
      </trkpt>
      <trkpt lat="43.44547" lon="3.36668">
        <ele>90.19</ele>
        <time>2023-05-11T09:08:15.387Z</time>
      </trkpt>
      <trkpt lat="43.44537" lon="3.36677">
        <ele>92.46</ele>
        <time>2023-05-11T09:08:25.834Z</time>
      </trkpt>
      <trkpt lat="43.44527" lon="3.36685">
        <ele>93.36</ele>
        <time>2023-05-11T09:08:36.314Z</time>
      </trkpt>
      <trkpt lat="43.44517" lon="3.36696">
        <ele>91.32</ele>
        <time>2023-05-11T09:08:46.838Z</time>
      </trkpt>
      <trkpt lat="43.44511" lon="3.36711">
        <ele>90.73</ele>
        <time>2023-05-11T09:08:57.285Z</time>
      </trkpt>
      <trkpt lat="43.44502" lon="3.36724">
        <ele>90.46</ele>
        <time>2023-05-11T09:09:07.301Z</time>
      </trkpt>
      <trkpt lat="43.44497" lon="3.36732">
        <ele>88.48</ele>
        <time>2023-05-11T09:09:17.693Z</time>
      </trkpt>
      <trkpt lat="43.44487" lon="3.36746">
        <ele>89.53</ele>
        <time>2023-05-11T09:09:28.089Z</time>
      </trkpt>
      <trkpt lat="43.44478" lon="3.36756">
        <ele>90.96</ele>
        <time>2023-05-11T09:09:38.535Z</time>
      </trkpt>
      <trkpt lat="43.44466" lon="3.36767">
        <ele>93.19</ele>
        <time>2023-05-11T09:09:48.984Z</time>
      </trkpt>
      <trkpt lat="43.44453" lon="3.36774">
        <ele>93.16</ele>
        <time>2023-05-11T09:09:59.441Z</time>
      </trkpt>
      <trkpt lat="43.4444" lon="3.36784">
        <ele>95.17</ele>
        <time>2023-05-11T09:10:09.899Z</time>
      </trkpt>
      <trkpt lat="43.4443" lon="3.3679">
        <ele>98.8</ele>
        <time>2023-05-11T09:10:20.346Z</time>
      </trkpt>
      <trkpt lat="43.44416" lon="3.36799">
        <ele>100.44</ele>
        <time>2023-05-11T09:10:30.364Z</time>
      </trkpt>
      <trkpt lat="43.44403" lon="3.36802">
        <ele>99.27</ele>
        <time>2023-05-11T09:10:40.820Z</time>
      </trkpt>
      <trkpt lat="43.44389" lon="3.36806">
        <ele>97.69</ele>
        <time>2023-05-11T09:10:51.229Z</time>
      </trkpt>
      <trkpt lat="43.44377" lon="3.36806">
        <ele>97.99</ele>
        <time>2023-05-11T09:11:01.726Z</time>
      </trkpt>
      <trkpt lat="43.44365" lon="3.36801">
        <ele>95.83</ele>
        <time>2023-05-11T09:11:12.174Z</time>
      </trkpt>
      <trkpt lat="43.44352" lon="3.36806">
        <ele>96.94</ele>
        <time>2023-05-11T09:11:22.644Z</time>
      </trkpt>
      <trkpt lat="43.44347" lon="3.36818">
        <ele>95.69</ele>
        <time>2023-05-11T09:11:33.079Z</time>
      </trkpt>
      <trkpt lat="43.44345" lon="3.36837">
        <ele>97.63</ele>
        <time>2023-05-11T09:11:43.096Z</time>
      </trkpt>
      <trkpt lat="43.44348" lon="3.36857">
        <ele>100.83</ele>
        <time>2023-05-11T09:11:53.564Z</time>
      </trkpt>
      <trkpt lat="43.44348" lon="3.36874">
        <ele>98.78</ele>
        <time>2023-05-11T09:12:04.011Z</time>
      </trkpt>
      <trkpt lat="43.44351" lon="3.36892">
        <ele>98.18</ele>
        <time>2023-05-11T09:12:14.459Z</time>
      </trkpt>
      <trkpt lat="43.44351" lon="3.36906">
        <ele>97.63</ele>
        <time>2023-05-11T09:12:24.920Z</time>
      </trkpt>
      <trkpt lat="43.44349" lon="3.36918">
        <ele>93.35</ele>
        <time>2023-05-11T09:12:35.374Z</time>
      </trkpt>
      <trkpt lat="43.44352" lon="3.36934">
        <ele>91.99</ele>
        <time>2023-05-11T09:12:45.842Z</time>
      </trkpt>
      <trkpt lat="43.44355" lon="3.36955">
        <ele>94.88</ele>
        <time>2023-05-11T09:12:56.299Z</time>
      </trkpt>
      <trkpt lat="43.44357" lon="3.36973">
        <ele>97.66</ele>
        <time>2023-05-11T09:13:06.747Z</time>
      </trkpt>
      <trkpt lat="43.44361" lon="3.3699">
        <ele>98.56</ele>
        <time>2023-05-11T09:13:17.195Z</time>
      </trkpt>
      <trkpt lat="43.44361" lon="3.37008">
        <ele>96.78</ele>
        <time>2023-05-11T09:13:27.642Z</time>
      </trkpt>
      <trkpt lat="43.44363" lon="3.37025">
        <ele>94.62</ele>
        <time>2023-05-11T09:13:38.099Z</time>
      </trkpt>
      <trkpt lat="43.44366" lon="3.37038">
        <ele>93.17</ele>
        <time>2023-05-11T09:13:48.558Z</time>
      </trkpt>
      <trkpt lat="43.44372" lon="3.37056">
        <ele>95.56</ele>
        <time>2023-05-11T09:13:59.014Z</time>
      </trkpt>
      <trkpt lat="43.44376" lon="3.37068">
        <ele>97.74</ele>
        <time>2023-05-11T09:14:09.903Z</time>
      </trkpt>
      <trkpt lat="43.44378" lon="3.37068">
        <ele>99.26</ele>
        <time>2023-05-11T09:14:20.900Z</time>
      </trkpt>
      <trkpt lat="43.44377" lon="3.3709">
        <ele>99.52</ele>
        <time>2023-05-11T09:14:36.847Z</time>
      </trkpt>
      <trkpt lat="43.44371" lon="3.37105">
        <ele>97.96</ele>
        <time>2023-05-11T09:14:47.313Z</time>
      </trkpt>
      <trkpt lat="43.44361" lon="3.37108">
        <ele>106.9</ele>
      </trkpt>
      <trkpt lat="43.4435" lon="3.37097">
        <ele>106.7</ele>
      </trkpt>
      <trkpt lat="43.44341" lon="3.3709">
        <ele>106.8</ele>
      </trkpt>
      <trkpt lat="43.4433" lon="3.37086">
        <ele>107</ele>
      </trkpt>
      <trkpt lat="43.44319" lon="3.37078">
        <ele>106.7</ele>
      </trkpt>
      <trkpt lat="43.44308" lon="3.37077">
        <ele>106.6</ele>
      </trkpt>
      <trkpt lat="43.44297" lon="3.37078">
        <ele>106.3</ele>
      </trkpt>
      <trkpt lat="43.44286" lon="3.37077">
        <ele>106</ele>
      </trkpt>
      <trkpt lat="43.44273" lon="3.37075">
        <ele>105.5</ele>
      </trkpt>
      <trkpt lat="43.4426" lon="3.37073">
        <ele>105</ele>
      </trkpt>
      <trkpt lat="43.44247" lon="3.37073">
        <ele>104.6</ele>
      </trkpt>
      <trkpt lat="43.44231" lon="3.37068">
        <ele>104.5</ele>
      </trkpt>
      <trkpt lat="43.44225" lon="3.37059">
        <ele>104.1</ele>
      </trkpt>
      <trkpt lat="43.44217" lon="3.37049">
        <ele>103.8</ele>
      </trkpt>
      <trkpt lat="43.44211" lon="3.37035">
        <ele>103.6</ele>
      </trkpt>
      <trkpt lat="43.44205" lon="3.37021">
        <ele>103.4</ele>
      </trkpt>
      <trkpt lat="43.44199" lon="3.3701">
        <ele>103.2</ele>
      </trkpt>
      <trkpt lat="43.44191" lon="3.37001">
        <ele>103</ele>
      </trkpt>
      <trkpt lat="43.44175" lon="3.36991">
        <ele>103.1</ele>
      </trkpt>
      <trkpt lat="43.44161" lon="3.36983">
        <ele>102.9</ele>
      </trkpt>
      <trkpt lat="43.44145" lon="3.36996">
        <ele>102.3</ele>
        <time>2023-05-11T09:14:57.762Z</time>
      </trkpt>
    </trkseg>
  </trk>
</gpx>